Observation data for Dozier on 01/17/2019      Previous  Date  Next       Current Mesonet Observations  Soil Data  Daily Summary Page  Observations in Plain Language
KDO1 170600Z 35015KT 05/05 A3003 RMK A01 T00460045  RH  099%=      5-min Rain = 0
KDO1 170601Z 34016KT 05/04 A3003 RMK A01 T00460044  RH  099%=      5-min Rain = 0
KDO1 170602Z 35017KT 05/04 A3003 RMK A01 T00460044  RH  099%=      5-min Rain = 0
KDO1 170603Z 35016KT 05/05 A3003 RMK A01 T00460045  RH  099%=      5-min Rain = 0
KDO1 170604Z 35015G21KT 05/05 A3003 RMK A01 T00460045  RH  099%=      5-min Rain = 0
KDO1 170605Z 34016G21KT 05/05 A3003 RMK A01 T00460045  RH  099%=      5-min Rain = 0
KDO1 170606Z 34016KT 05/05 A3003 RMK A01 T00460045  RH  100%=      5-min Rain = 0
KDO1 170607Z 35014KT 05/05 A3003 RMK A01 T00460045  RH  100%=      5-min Rain = 0
KDO1 170608Z 34016KT 05/05 A3004 RMK A01 T00460045  RH  100%=      5-min Rain = 0
KDO1 170609Z 34016KT 05/05 A3004 RMK A01 T00460045  RH  099%=      5-min Rain = 0
KDO1 170610Z 34014KT 05/05 A3004 RMK A01 T00460045  RH  099%=      5-min Rain = 0
KDO1 170611Z 34017KT 05/05 A3004 RMK A01 T00460045  RH  099%=      5-min Rain = 0
KDO1 170612Z 34016KT 05/05 A3004 RMK A01 T00470045  RH  099%=      5-min Rain = 0
KDO1 170613Z 34015KT 05/05 A3004 RMK A01 T00470045  RH  099%=      5-min Rain = 0
KDO1 170614Z 34014KT 05/05 A3004 RMK A01 T00470045  RH  099%=      5-min Rain = 0
KDO1 170615Z 34013KT 05/05 A3004 RMK A01 T00470046  RH  099%=      5-min Rain = 0
KDO1 170616Z 34014KT 05/05 A3004 RMK A01 T00470046  RH  099%=      5-min Rain = 0
KDO1 170617Z 34010KT 05/05 A3004 RMK A01 T00480046  RH  099%=      5-min Rain = 0
KDO1 170618Z 35012KT 05/05 A3004 RMK A01 T00480046  RH  099%=      5-min Rain = 0
KDO1 170619Z 34010KT 05/05 A3004 RMK A01 T00480046  RH  099%=      5-min Rain = 0
KDO1 170620Z 34011KT 05/05 A3004 RMK A01 T00480047  RH  099%=      5-min Rain = 0
KDO1 170621Z 34011KT 05/05 A3004 RMK A01 T00490047  RH  099%=      5-min Rain = 0
KDO1 170622Z 35013G18KT 05/05 A3004 RMK A01 T00490047  RH  098%=      5-min Rain = 0
KDO1 170623Z 35015KT 05/05 A3004 RMK A01 T00490047  RH  098%=      5-min Rain = 0
KDO1 170624Z 34014KT 05/05 A3004 RMK A01 T00500048  RH  098%=      5-min Rain = 0
KDO1 170625Z 34011KT 05/05 A3004 RMK A01 T00500048  RH  098%=      5-min Rain = 0
KDO1 170626Z 34013KT 05/05 A3004 RMK A01 T00510048  RH  098%=      5-min Rain = 0
KDO1 170627Z 34010KT 05/05 A3004 RMK A01 T00510048  RH  098%=      5-min Rain = 0
KDO1 170628Z 34010KT 05/05 A3004 RMK A01 T00510048  RH  098%=      5-min Rain = 0
KDO1 170629Z 34011G17KT 05/05 A3004 RMK A01 T00520048  RH  098%=      5-min Rain = 0
KDO1 170630Z 34011KT 05/05 A3005 RMK A01 T00520048  RH  098%=      5-min Rain = 0
KDO1 170631Z 33010KT 05/05 A3005 RMK A01 T00520049  RH  098%=      5-min Rain = 0
KDO1 170632Z 33012KT 05/05 A3005 RMK A01 T00520049  RH  097%=      5-min Rain = 0
KDO1 170633Z 33011G18KT 05/05 A3005 RMK A01 T00530049  RH  097%=      5-min Rain = 0
KDO1 170634Z 33014KT 05/05 A3005 RMK A01 T00530048  RH  097%=      5-min Rain = 0
KDO1 170635Z 33014KT 05/05 A3005 RMK A01 T00530049  RH  097%=      5-min Rain = 0
KDO1 170636Z 33012G18KT 05/05 A3005 RMK A01 T00530049  RH  097%=      5-min Rain = 0
KDO1 170637Z 34009KT 05/05 A3005 RMK A01 T00540049  RH  097%=      5-min Rain = 0
KDO1 170638Z 33007KT 05/05 A3005 RMK A01 T00530048  RH  097%=      5-min Rain = 0
KDO1 170639Z 30007KT 05/05 A3005 RMK A01 T00540049  RH  096%=      5-min Rain = 0
KDO1 170640Z 31006KT 05/05 A3005 RMK A01 T00540049  RH  096%=      5-min Rain = 0
KDO1 170641Z 32006KT 05/05 A3005 RMK A01 T00540048  RH  096%=      5-min Rain = 0
KDO1 170642Z 32010G15KT 05/05 A3005 RMK A01 T00540048  RH  096%=      5-min Rain = 0
KDO1 170643Z 32011KT 06/05 A3005 RMK A01 T00550048  RH  096%=      5-min Rain = 0
KDO1 170644Z 33012KT 06/05 A3005 RMK A01 T00550048  RH  096%=      5-min Rain = 0
KDO1 170645Z 33009KT 06/05 A3005 RMK A01 T00550048  RH  095%=      5-min Rain = 0
KDO1 170646Z 32008KT 06/05 A3005 RMK A01 T00550048  RH  095%=      5-min Rain = 0
KDO1 170647Z 32009KT 06/05 A3005 RMK A01 T00550048  RH  095%=      5-min Rain = 0
KDO1 170648Z 32009KT 06/05 A3006 RMK A01 T00550048  RH  095%=      5-min Rain = 0
KDO1 170649Z 34008KT 06/05 A3005 RMK A01 T00550048  RH  095%=      5-min Rain = 0
KDO1 170650Z 33009KT 06/05 A3006 RMK A01 T00550048  RH  095%=      5-min Rain = 0
KDO1 170651Z 32010KT 06/05 A3006 RMK A01 T00550048  RH  095%=      5-min Rain = 0
KDO1 170652Z 32010KT 06/05 A3005 RMK A01 T00550048  RH  095%=      5-min Rain = 0
KDO1 170653Z 32010KT 06/05 A3005 RMK A01 T00550048  RH  095%=      5-min Rain = 0
KDO1 170654Z 33008KT 06/05 A3005 RMK A01 T00550047  RH  095%=      5-min Rain = 0
KDO1 170655Z 33007KT 06/05 A3005 RMK A01 T00550047  RH  095%=      5-min Rain = 0
KDO1 170656Z 33007KT 06/05 A3006 RMK A01 T00550047  RH  095%=      5-min Rain = 0
KDO1 170657Z 33007KT 06/05 A3006 RMK A01 T00550047  RH  095%=      5-min Rain = 0
KDO1 170658Z 34006KT 06/05 A3006 RMK A01 T00550047  RH  094%=      5-min Rain = 0
KDO1 170659Z 32007KT 06/05 A3006 RMK A01 T00550047  RH  094%=      5-min Rain = 0
KDO1 170700Z 32009KT 06/05 A3006 RMK A01 T00550046  RH  094%=      5-min Rain = 0
KDO1 170701Z 33010KT 06/05 A3005 RMK A01 T00550045  RH  094%=      5-min Rain = 0
KDO1 170702Z 33010KT 05/05 A3005 RMK A01 T00540045  RH  093%=      5-min Rain = 0
KDO1 170703Z 33011KT 06/05 A3005 RMK A01 T00550045  RH  093%=      5-min Rain = 0
KDO1 170704Z 33012KT 05/04 A3005 RMK A01 T00540044  RH  093%=      5-min Rain = 0
KDO1 170705Z 34010KT 05/04 A3005 RMK A01 T00540044  RH  093%=      5-min Rain = 0
KDO1 170706Z 33009KT 05/04 A3005 RMK A01 T00540044  RH  093%=      5-min Rain = 0
KDO1 170707Z 33011KT 05/04 A3005 RMK A01 T00540044  RH  093%=      5-min Rain = 0
KDO1 170708Z 33013KT 05/04 A3005 RMK A01 T00530044  RH  093%=      5-min Rain = 0
KDO1 170709Z 33013KT 05/04 A3005 RMK A01 T00530044  RH  094%=      5-min Rain = 0
KDO1 170710Z 33012KT 05/04 A3005 RMK A01 T00530044  RH  094%=      5-min Rain = 0
KDO1 170711Z 33013KT 05/04 A3005 RMK A01 T00530044  RH  094%=      5-min Rain = 0
KDO1 170712Z 33012KT 05/04 A3005 RMK A01 T00530044  RH  094%=      5-min Rain = 0
KDO1 170713Z 33012KT 05/04 A3005 RMK A01 T00530044  RH  094%=      5-min Rain = 0
KDO1 170714Z 33010KT 05/04 A3005 RMK A01 T00520043  RH  094%=      5-min Rain = 0
KDO1 170715Z 33011KT 05/04 A3005 RMK A01 T00520043  RH  094%=      5-min Rain = 0
KDO1 170716Z 33011KT 05/04 A3005 RMK A01 T00510042  RH  094%=      5-min Rain = 0
KDO1 170717Z 33015KT 05/04 A3005 RMK A01 T00510042  RH  094%=      5-min Rain = 0
KDO1 170718Z 33017KT 05/04 A3004 RMK A01 T00510042  RH  094%=      5-min Rain = 0
KDO1 170719Z 33017KT 05/04 A3004 RMK A01 T00510042  RH  094%=      5-min Rain = 0
KDO1 170720Z 33017KT 05/04 A3004 RMK A01 T00510042  RH  094%=      5-min Rain = 0
KDO1 170721Z 33018KT 05/04 A3004 RMK A01 T00510042  RH  094%=      5-min Rain = 0
KDO1 170722Z 33015KT 05/04 A3004 RMK A01 T00510042  RH  094%=      5-min Rain = 0
KDO1 170723Z 34015KT 05/04 A3005 RMK A01 T00510042  RH  094%=      5-min Rain = 0
KDO1 170724Z 34018KT 05/04 A3005 RMK A01 T00510042  RH  094%=      5-min Rain = 0
KDO1 170725Z 34016G21KT 05/04 A3005 RMK A01 T00510042  RH  094%=      5-min Rain = 0
KDO1 170726Z 34016KT 05/04 A3005 RMK A01 T00510042  RH  094%=      5-min Rain = 0
KDO1 170727Z 34016KT 05/04 A3005 RMK A01 T00510042  RH  094%=      5-min Rain = 0
KDO1 170728Z 34013G18KT 05/04 A3005 RMK A01 T00500042  RH  094%=      5-min Rain = 0
KDO1 170729Z 34016KT 05/04 A3004 RMK A01 T00500042  RH  094%=      5-min Rain = 0
KDO1 170730Z 34016KT 05/04 A3004 RMK A01 T00510042  RH  094%=      5-min Rain = 0
KDO1 170731Z 34014KT 05/04 A3004 RMK A01 T00500041  RH  094%=      5-min Rain = 0
KDO1 170732Z 33016G22KT 05/04 A3004 RMK A01 T00500041  RH  094%=      5-min Rain = 0
KDO1 170733Z 34015KT 05/04 A3004 RMK A01 T00490041  RH  094%=      5-min Rain = 0
KDO1 170734Z 34018KT 05/04 A3004 RMK A01 T00490040  RH  094%=      5-min Rain = 0
KDO1 170735Z 33017KT 05/04 A3004 RMK A01 T00490041  RH  094%=      5-min Rain = 0
KDO1 170736Z 33014KT 05/04 A3004 RMK A01 T00490041  RH  094%=      5-min Rain = 0
KDO1 170737Z 34016KT 05/04 A3004 RMK A01 T00490040  RH  094%=      5-min Rain = 0
KDO1 170738Z 33016KT 05/04 A3005 RMK A01 T00500041  RH  094%=      5-min Rain = 0
KDO1 170739Z 33013KT 05/04 A3005 RMK A01 T00490040  RH  094%=      5-min Rain = 0
KDO1 170740Z 33012KT 05/04 A3005 RMK A01 T00490040  RH  094%=      5-min Rain = 0
KDO1 170741Z 34015KT 05/04 A3005 RMK A01 T00480040  RH  094%=      5-min Rain = 0
KDO1 170742Z 33012KT 05/04 A3005 RMK A01 T00480040  RH  095%=      5-min Rain = 0
KDO1 170743Z 34012KT 05/04 A3005 RMK A01 T00480040  RH  095%=      5-min Rain = 0
KDO1 170744Z 34014KT 05/04 A3005 RMK A01 T00480040  RH  095%=      5-min Rain = 0
KDO1 170745Z 34013G18KT 05/04 A3005 RMK A01 T00480040  RH  095%=      5-min Rain = 0
KDO1 170746Z 34015KT 05/04 A3004 RMK A01 T00470040  RH  095%=      5-min Rain = 0
KDO1 170747Z 35013KT 05/04 A3005 RMK A01 T00470041  RH  096%=      5-min Rain = 0
KDO1 170748Z 35013KT 05/04 A3005 RMK A01 T00470040  RH  096%=      5-min Rain = 0
KDO1 170749Z 35014KT 05/04 A3005 RMK A01 T00470041  RH  096%=      5-min Rain = 0
KDO1 170750Z 34014KT 05/04 A3005 RMK A01 T00470041  RH  096%=      5-min Rain = 0
KDO1 170751Z 34013KT 05/04 A3005 RMK A01 T00470041  RH  096%=      5-min Rain = 0
KDO1 170752Z 34015KT 05/04 A3005 RMK A01 T00470041  RH  095%=      5-min Rain = 0
KDO1 170753Z 34017KT 05/04 A3005 RMK A01 T00470040  RH  095%=      5-min Rain = 0
KDO1 170754Z 33017G22KT 05/04 A3005 RMK A01 T00470040  RH  095%=      5-min Rain = 0
KDO1 170755Z 33017KT 05/04 A3005 RMK A01 T00470040  RH  095%=      5-min Rain = 0
KDO1 170756Z 33017KT 05/04 A3005 RMK A01 T00470040  RH  095%=      5-min Rain = 0
KDO1 170757Z 34013KT 05/04 A3005 RMK A01 T00470040  RH  095%=      5-min Rain = 0
KDO1 170758Z 34013KT 05/04 A3005 RMK A01 T00480040  RH  095%=      5-min Rain = 0
KDO1 170759Z 34011KT 05/04 A3005 RMK A01 T00470040  RH  095%=      5-min Rain = 0
KDO1 170800Z 34010KT 05/04 A3005 RMK A01 T00470040  RH  095%=      5-min Rain = 0
KDO1 170801Z 33013G19KT 05/04 A3005 RMK A01 T00470040  RH  095%=      5-min Rain = 0
KDO1 170802Z 34015KT 05/04 A3005 RMK A01 T00470040  RH  095%=      5-min Rain = 0
KDO1 170803Z 34015KT 05/04 A3005 RMK A01 T00470041  RH  095%=      5-min Rain = 0
KDO1 170804Z 34016KT 05/04 A3006 RMK A01 T00480041  RH  095%=      5-min Rain = 0
KDO1 170805Z 34013KT 05/04 A3006 RMK A01 T00480041  RH  095%=      5-min Rain = 0
KDO1 170806Z 34011G16KT 05/04 A3005 RMK A01 T00490041  RH  095%=      5-min Rain = 0
KDO1 170807Z 34012KT 05/04 A3005 RMK A01 T00480041  RH  095%=      5-min Rain = 0
KDO1 170808Z 35010KT 05/04 A3005 RMK A01 T00490041  RH  095%=      5-min Rain = 0
KDO1 170809Z 34012KT 05/04 A3006 RMK A01 T00480041  RH  095%=      5-min Rain = 0
KDO1 170810Z 34012KT 05/04 A3006 RMK A01 T00480041  RH  095%=      5-min Rain = 0
KDO1 170811Z 34012KT 05/04 A3006 RMK A01 T00480041  RH  095%=      5-min Rain = 0
KDO1 170812Z 34013KT 05/04 A3006 RMK A01 T00480040  RH  095%=      5-min Rain = 0
KDO1 170813Z 34014G19KT 05/04 A3006 RMK A01 T00480040  RH  095%=      5-min Rain = 0
KDO1 170814Z 35014KT 05/04 A3005 RMK A01 T00480040  RH  095%=      5-min Rain = 0
KDO1 170815Z 34013KT 05/04 A3005 RMK A01 T00480040  RH  095%=      5-min Rain = 0
KDO1 170816Z 34014KT 05/04 A3005 RMK A01 T00480040  RH  095%=      5-min Rain = 0
KDO1 170817Z 34014KT 05/04 A3005 RMK A01 T00480040  RH  094%=      5-min Rain = 0
KDO1 170818Z 34010KT 05/04 A3005 RMK A01 T00480040  RH  095%=      5-min Rain = 0
KDO1 170819Z 35012G18KT 05/04 A3006 RMK A01 T00480040  RH  095%=      5-min Rain = 0
KDO1 170820Z 33012G18KT 05/04 A3005 RMK A01 T00480040  RH  095%=      5-min Rain = 0
KDO1 170821Z 34013KT 05/04 A3005 RMK A01 T00480040  RH  095%=      5-min Rain = 0
KDO1 170822Z 33015KT 05/04 A3005 RMK A01 T00480040  RH  095%=      5-min Rain = 0
KDO1 170823Z 33012G17KT 05/04 A3006 RMK A01 T00480040  RH  095%=      5-min Rain = 0
KDO1 170824Z 33011G16KT 05/04 A3006 RMK A01 T00480040  RH  095%=      5-min Rain = 0
KDO1 170825Z 34012KT 05/04 A3006 RMK A01 T00480040  RH  095%=      5-min Rain = 0
KDO1 170826Z 33010KT 05/04 A3006 RMK A01 T00480040  RH  095%=      5-min Rain = 0
KDO1 170827Z 33014G19KT 05/04 A3006 RMK A01 T00480040  RH  095%=      5-min Rain = 0
KDO1 170828Z 33015G20KT 05/04 A3006 RMK A01 T00470039  RH  094%=      5-min Rain = 0
KDO1 170829Z 33015KT 05/04 A3006 RMK A01 T00460038  RH  094%=      5-min Rain = 0
KDO1 170830Z 33011G17KT 05/04 A3006 RMK A01 T00460038  RH  095%=      5-min Rain = 0
KDO1 170831Z 33012KT 05/04 A3006 RMK A01 T00460038  RH  095%=      5-min Rain = 0
KDO1 170832Z 33014G19KT 05/04 A3006 RMK A01 T00450038  RH  095%=      5-min Rain = 0
KDO1 170833Z 33012KT 05/04 A3006 RMK A01 T00450038  RH  095%=      5-min Rain = 0
KDO1 170834Z 33012KT 05/04 A3006 RMK A01 T00460038  RH  095%=      5-min Rain = 0
KDO1 170835Z 33009G14KT 05/04 A3006 RMK A01 T00460039  RH  095%=      5-min Rain = 0
KDO1 170836Z 33011KT 05/04 A3006 RMK A01 T00460038  RH  095%=      5-min Rain = 0
KDO1 170837Z 34010KT 05/04 A3006 RMK A01 T00460038  RH  095%=      5-min Rain = 0
KDO1 170838Z 33007KT 05/04 A3006 RMK A01 T00460039  RH  095%=      5-min Rain = 0
KDO1 170839Z 33008KT 05/04 A3006 RMK A01 T00460038  RH  095%=      5-min Rain = 0
KDO1 170840Z 34007KT 05/04 A3006 RMK A01 T00460039  RH  095%=      5-min Rain = 0
KDO1 170841Z 34007KT 05/04 A3006 RMK A01 T00460039  RH  095%=      5-min Rain = 0
KDO1 170842Z 33010G15KT 05/04 A3006 RMK A01 T00460039  RH  095%=      5-min Rain = 0
KDO1 170843Z 34015KT 05/04 A3006 RMK A01 T00450038  RH  095%=      5-min Rain = 0
KDO1 170844Z 34014KT 05/04 A3006 RMK A01 T00450037  RH  095%=      5-min Rain = 0
KDO1 170845Z 34012KT 05/04 A3006 RMK A01 T00450037  RH  095%=      5-min Rain = 0
KDO1 170846Z 34010KT 04/04 A3006 RMK A01 T00440037  RH  095%=      5-min Rain = 0
KDO1 170847Z 34010KT 04/04 A3006 RMK A01 T00440037  RH  095%=      5-min Rain = 0
KDO1 170848Z 34010KT 04/04 A3006 RMK A01 T00440037  RH  095%=      5-min Rain = 0
KDO1 170849Z 34012G17KT 04/04 A3006 RMK A01 T00430036  RH  095%=      5-min Rain = 0
KDO1 170850Z 34012KT 04/04 A3007 RMK A01 T00430036  RH  095%=      5-min Rain = 0
KDO1 170851Z 34013G18KT 04/04 A3007 RMK A01 T00420036  RH  095%=      5-min Rain = 0
KDO1 170852Z 33014KT 04/04 A3007 RMK A01 T00430036  RH  095%=      5-min Rain = 0
KDO1 170853Z 34013KT 04/04 A3007 RMK A01 T00420036  RH  095%=      5-min Rain = 0
KDO1 170854Z 34011KT 04/04 A3007 RMK A01 T00430036  RH  095%=      5-min Rain = 0
KDO1 170855Z 34014KT 04/04 A3007 RMK A01 T00420036  RH  095%=      5-min Rain = 0
KDO1 170856Z 34013KT 04/04 A3007 RMK A01 T00420035  RH  095%=      5-min Rain = 0
KDO1 170857Z 34014KT 04/04 A3007 RMK A01 T00420035  RH  095%=      5-min Rain = 0
KDO1 170858Z 33013KT 04/04 A3007 RMK A01 T00420035  RH  095%=      5-min Rain = 0
KDO1 170859Z 34009KT 04/04 A3007 RMK A01 T00420035  RH  095%=      5-min Rain = 0
KDO1 170900Z 33013G18KT 04/04 A3007 RMK A01 T00410035  RH  095%=      5-min Rain = 0
KDO1 170901Z 34014KT 04/04 A3007 RMK A01 T00420035  RH  095%=      5-min Rain = 0
KDO1 170902Z 34011KT 04/03 A3007 RMK A01 T00420034  RH  095%=      5-min Rain = 0
KDO1 170903Z 34010KT 04/03 A3007 RMK A01 T00420034  RH  095%=      5-min Rain = 0
KDO1 170904Z 34010KT 04/03 A3007 RMK A01 T00420034  RH  095%=      5-min Rain = 0
KDO1 170905Z 34009KT 04/03 A3008 RMK A01 T00410034  RH  095%=      5-min Rain = 0
KDO1 170906Z 34009KT 04/03 A3008 RMK A01 T00410034  RH  095%=      5-min Rain = 0
KDO1 170907Z 34009KT 04/03 A3008 RMK A01 T00410034  RH  095%=      5-min Rain = 0
KDO1 170908Z 34006KT 04/03 A3008 RMK A01 T00410034  RH  095%=      5-min Rain = 0
KDO1 170909Z 34006G11KT 04/03 A3008 RMK A01 T00410034  RH  095%=      5-min Rain = 0
KDO1 170910Z 34007KT 04/03 A3008 RMK A01 T00410034  RH  095%=      5-min Rain = 0
KDO1 170911Z 34006KT 04/03 A3008 RMK A01 T00410034  RH  095%=      5-min Rain = 0
KDO1 170912Z 34007KT 04/03 A3008 RMK A01 T00410034  RH  095%=      5-min Rain = 0
KDO1 170913Z 33006KT 04/03 A3008 RMK A01 T00400033  RH  095%=      5-min Rain = 0
KDO1 170914Z 33004KT 04/03 A3008 RMK A01 T00400034  RH  095%=      5-min Rain = 0
KDO1 170915Z 32004KT 04/03 A3008 RMK A01 T00400034  RH  096%=      5-min Rain = 0
KDO1 170916Z 31006KT 04/03 A3008 RMK A01 T00400034  RH  095%=      5-min Rain = 0
KDO1 170917Z 33008KT 04/03 A3008 RMK A01 T00400033  RH  095%=      5-min Rain = 0
KDO1 170918Z 32008KT 04/03 A3008 RMK A01 T00400033  RH  095%=      5-min Rain = 0
KDO1 170919Z 32009KT 04/03 A3008 RMK A01 T00400032  RH  095%=      5-min Rain = 0
KDO1 170920Z 33006KT 04/03 A3009 RMK A01 T00400032  RH  095%=      5-min Rain = 0
KDO1 170921Z 32007KT 04/03 A3009 RMK A01 T00400033  RH  095%=      5-min Rain = 0
KDO1 170922Z 34006KT 04/03 A3009 RMK A01 T00400032  RH  095%=      5-min Rain = 0
KDO1 170923Z 33009KT 04/03 A3009 RMK A01 T00400032  RH  095%=      5-min Rain = 0
KDO1 170924Z 33009KT 04/03 A3009 RMK A01 T00400032  RH  095%=      5-min Rain = 0
KDO1 170925Z 33008KT 04/03 A3009 RMK A01 T00400032  RH  095%=      5-min Rain = 0
KDO1 170926Z 33008KT 04/03 A3009 RMK A01 T00400032  RH  095%=      5-min Rain = 0
KDO1 170927Z 33008KT 04/03 A3009 RMK A01 T00400032  RH  095%=      5-min Rain = 0
KDO1 170928Z 33009KT 04/03 A3009 RMK A01 T00400032  RH  095%=      5-min Rain = 0
KDO1 170929Z 33010KT 04/03 A3009 RMK A01 T00400032  RH  095%=      5-min Rain = 0
KDO1 170930Z 33012KT 04/03 A3009 RMK A01 T00400032  RH  095%=      5-min Rain = 0
KDO1 170931Z 33009KT 04/03 A3009 RMK A01 T00400032  RH  095%=      5-min Rain = 0
KDO1 170932Z 33007KT 04/03 A3009 RMK A01 T00390032  RH  095%=      5-min Rain = 0
KDO1 170933Z 33009KT 04/03 A3009 RMK A01 T00390032  RH  095%=      5-min Rain = 0
KDO1 170934Z 33008KT 04/03 A3009 RMK A01 T00390032  RH  095%=      5-min Rain = 0
KDO1 170935Z 33006KT 04/03 A3009 RMK A01 T00390031  RH  095%=      5-min Rain = 0
KDO1 170936Z 32005KT 04/03 A3009 RMK A01 T00380031  RH  095%=      5-min Rain = 0
KDO1 170937Z 31006KT 04/03 A3009 RMK A01 T00380031  RH  095%=      5-min Rain = 0
KDO1 170938Z 32006KT 04/03 A3009 RMK A01 T00380031  RH  095%=      5-min Rain = 0
KDO1 170939Z 31007KT 04/03 A3009 RMK A01 T00380031  RH  095%=      5-min Rain = 0
KDO1 170940Z 31008KT 04/03 A3009 RMK A01 T00370031  RH  096%=      5-min Rain = 0
KDO1 170941Z 32008G13KT 04/03 A3009 RMK A01 T00370031  RH  096%=      5-min Rain = 0
KDO1 170942Z 32009KT 04/03 A3009 RMK A01 T00370031  RH  096%=      5-min Rain = 0
KDO1 170943Z 33009KT 04/03 A3009 RMK A01 T00370030  RH  096%=      5-min Rain = 0
KDO1 170944Z 32009KT 04/03 A3009 RMK A01 T00360030  RH  096%=      5-min Rain = 0
KDO1 170945Z 33010KT 04/03 A3009 RMK A01 T00360030  RH  096%=      5-min Rain = 0
KDO1 170946Z 33011KT 04/03 A3009 RMK A01 T00360030  RH  096%=      5-min Rain = 0
KDO1 170947Z 33011KT 04/03 A3009 RMK A01 T00360030  RH  096%=      5-min Rain = 0
KDO1 170948Z 33012KT 04/03 A3009 RMK A01 T00360029  RH  096%=      5-min Rain = 0
KDO1 170949Z 33010KT 04/03 A3009 RMK A01 T00360029  RH  096%=      5-min Rain = 0
KDO1 170950Z 33011KT 04/03 A3009 RMK A01 T00350029  RH  096%=      5-min Rain = 0
KDO1 170951Z 33011KT 04/03 A3009 RMK A01 T00350028  RH  096%=      5-min Rain = 0
KDO1 170952Z 34012KT 03/03 A3009 RMK A01 T00340028  RH  096%=      5-min Rain = 0
KDO1 170953Z 34012KT 03/03 A3009 RMK A01 T00340028  RH  096%=      5-min Rain = 0
KDO1 170954Z 34014KT 03/03 A3008 RMK A01 T00340028  RH  096%=      5-min Rain = 0
KDO1 170955Z 34012KT 03/03 A3009 RMK A01 T00340028  RH  096%=      5-min Rain = 0
KDO1 170956Z 34012KT 03/03 A3009 RMK A01 T00330028  RH  096%=      5-min Rain = 0
KDO1 170957Z 33012KT 03/03 A3009 RMK A01 T00330028  RH  096%=      5-min Rain = 0
KDO1 170958Z 34011KT 03/03 A3009 RMK A01 T00340029  RH  097%=      5-min Rain = 0
KDO1 170959Z 34010KT 03/03 A3009 RMK A01 T00330029  RH  097%=      5-min Rain = 0
KDO1 171000Z 34011KT 03/03 A3009 RMK A01 T00330028  RH  097%=      5-min Rain = 0
KDO1 171001Z 35010KT 03/03 A3009 RMK A01 T00330029  RH  097%=      5-min Rain = 0
KDO1 171002Z 34010KT 03/03 A3009 RMK A01 T00330029  RH  097%=      5-min Rain = 0
KDO1 171003Z 34009KT 03/03 A3009 RMK A01 T00330028  RH  097%=      5-min Rain = 0
KDO1 171004Z 34011KT 03/03 A3009 RMK A01 T00330029  RH  097%=      5-min Rain = 0
KDO1 171005Z 34010KT 03/03 A3009 RMK A01 T00330029  RH  097%=      5-min Rain = 0
KDO1 171006Z 34010KT 03/03 A3008 RMK A01 T00330029  RH  097%=      5-min Rain = 0
KDO1 171007Z 34010KT 03/03 A3008 RMK A01 T00320028  RH  097%=      5-min Rain = 0
KDO1 171008Z 34011KT 03/03 A3009 RMK A01 T00320028  RH  097%=      5-min Rain = 0
KDO1 171009Z 33010KT 03/03 A3008 RMK A01 T00320028  RH  097%=      5-min Rain = 0
KDO1 171010Z 33011KT 03/03 A3008 RMK A01 T00320028  RH  097%=      5-min Rain = 0
KDO1 171011Z 33011KT 03/03 A3008 RMK A01 T00320028  RH  097%=      5-min Rain = 0
KDO1 171012Z 33010KT 03/03 A3008 RMK A01 T00310028  RH  097%=      5-min Rain = 0
KDO1 171013Z 33010KT 03/03 A3008 RMK A01 T00310027  RH  097%=      5-min Rain = 0
KDO1 171014Z 33010KT 03/03 A3008 RMK A01 T00310027  RH  097%=      5-min Rain = 0
KDO1 171015Z 33009KT 03/03 A3008 RMK A01 T00310027  RH  098%=      5-min Rain = 0
KDO1 171016Z 33009KT 03/03 A3008 RMK A01 T00310028  RH  098%=      5-min Rain = 0
KDO1 171017Z 33011KT 03/03 A3008 RMK A01 T00310028  RH  098%=      5-min Rain = 0
KDO1 171018Z 32010KT 03/03 A3008 RMK A01 T00310028  RH  098%=      5-min Rain = 0
KDO1 171019Z 33010KT 03/03 A3008 RMK A01 T00310028  RH  098%=      5-min Rain = 0
KDO1 171020Z 33011KT 03/03 A3008 RMK A01 T00310028  RH  098%=      5-min Rain = 0
KDO1 171021Z 33013KT 03/03 A3008 RMK A01 T00310028  RH  098%=      5-min Rain = 0
KDO1 171022Z 33012KT 03/03 A3008 RMK A01 T00310028  RH  098%=      5-min Rain = 0
KDO1 171023Z 33010KT 03/03 A3008 RMK A01 T00310027  RH  097%=      5-min Rain = 0
KDO1 171024Z 34011KT 03/03 A3008 RMK A01 T00310027  RH  097%=      5-min Rain = 0
KDO1 171025Z 33010KT 03/03 A3008 RMK A01 T00310027  RH  097%=      5-min Rain = 0
KDO1 171026Z 34011G16KT 03/03 A3008 RMK A01 T00310027  RH  097%=      5-min Rain = 0
KDO1 171027Z 34011KT 03/03 A3008 RMK A01 T00310027  RH  097%=      5-min Rain = 0
KDO1 171028Z 34008KT 03/03 A3008 RMK A01 T00310027  RH  097%=      5-min Rain = 0
KDO1 171029Z 34008KT 03/03 A3008 RMK A01 T00310027  RH  097%=      5-min Rain = 0
KDO1 171030Z 33009G15KT 03/03 A3008 RMK A01 T00310026  RH  097%=      5-min Rain = 0
KDO1 171031Z 34008KT 03/03 A3008 RMK A01 T00310026  RH  097%=      5-min Rain = 0
KDO1 171032Z 33009G15KT 03/03 A3008 RMK A01 T00310026  RH  096%=      5-min Rain = 0
KDO1 171033Z 34008KT 03/03 A3009 RMK A01 T00310026  RH  096%=      5-min Rain = 0
KDO1 171034Z 33008KT 03/03 A3009 RMK A01 T00310025  RH  096%=      5-min Rain = 0
KDO1 171035Z 34005KT 03/03 A3009 RMK A01 T00310025  RH  096%=      5-min Rain = 0
KDO1 171036Z 34007KT 03/03 A3009 RMK A01 T00310025  RH  096%=      5-min Rain = 0
KDO1 171037Z 35007KT 03/03 A3009 RMK A01 T00310025  RH  096%=      5-min Rain = 0
KDO1 171038Z 35005KT 03/02 A3009 RMK A01 T00300024  RH  096%=      5-min Rain = 0
KDO1 171039Z 02004KT 03/02 A3009 RMK A01 T00300024  RH  096%=      5-min Rain = 0
KDO1 171040Z 04002KT 03/02 A3009 RMK A01 T00300023  RH  096%=      5-min Rain = 0
KDO1 171041Z 01002KT 03/02 A3009 RMK A01 T00290024  RH  096%=      5-min Rain = 0
KDO1 171042Z 07001KT 03/02 A3009 RMK A01 T00290024  RH  096%=      5-min Rain = 0
KDO1 171043Z 16002KT 03/02 A3009 RMK A01 T00290024  RH  096%=      5-min Rain = 0
KDO1 171044Z 16002KT 03/02 A3009 RMK A01 T00290024  RH  096%=      5-min Rain = 0
KDO1 171045Z 14001KT 03/02 A3009 RMK A01 T00280023  RH  096%=      5-min Rain = 0
KDO1 171046Z 07001KT 03/02 A3009 RMK A01 T00280023  RH  097%=      5-min Rain = 0
KDO1 171047Z 07001KT 03/02 A3009 RMK A01 T00270023  RH  097%=      5-min Rain = 0
KDO1 171048Z 08001KT 03/02 A3009 RMK A01 T00270023  RH  097%=      5-min Rain = 0
KDO1 171049Z 11001KT 03/02 A3009 RMK A01 T00280023  RH  097%=      5-min Rain = 0
KDO1 171050Z 12002KT 03/02 A3009 RMK A01 T00270024  RH  097%=      5-min Rain = 0
KDO1 171051Z 12002KT 03/02 A3009 RMK A01 T00270024  RH  097%=      5-min Rain = 0
KDO1 171052Z 12002KT 03/02 A3009 RMK A01 T00270023  RH  097%=      5-min Rain = 0
KDO1 171053Z 08002KT 03/02 A301 RMK A01 T00270023  RH  097%=      5-min Rain = 0
KDO1 171054Z 09002KT 03/02 A301 RMK A01 T00260022  RH  097%=      5-min Rain = 0
KDO1 171055Z 07000KT 03/02 A301 RMK A01 T00250021  RH  097%=      5-min Rain = 0
KDO1 171056Z 03001KT 02/02 A301 RMK A01 T00240021  RH  097%=      5-min Rain = 0
KDO1 171057Z 00002KT 03/02 A301 RMK A01 T00250022  RH  098%=      5-min Rain = 0
KDO1 171058Z 35002KT 03/02 A301 RMK A01 T00250022  RH  098%=      5-min Rain = 0
KDO1 171059Z 35002KT 02/02 A301 RMK A01 T00240021  RH  098%=      5-min Rain = 0
KDO1 171100Z 35003KT 02/02 A301 RMK A01 T00240022  RH  099%=      5-min Rain = 0
KDO1 171101Z 34002KT 03/02 A301 RMK A01 T00250023  RH  099%=      5-min Rain = 0
KDO1 171102Z 33003KT 03/02 A301 RMK A01 T00260023  RH  099%=      5-min Rain = 0
KDO1 171103Z 32004KT 03/02 A301 RMK A01 T00250022  RH  098%=      5-min Rain = 0
KDO1 171104Z 34004KT 03/02 A301 RMK A01 T00250022  RH  098%=      5-min Rain = 0
KDO1 171105Z 31003KT 03/02 A301 RMK A01 T00260024  RH  099%=      5-min Rain = 0
KDO1 171106Z 31003KT 03/02 A301 RMK A01 T00260023  RH  098%=      5-min Rain = 0
KDO1 171107Z 33004KT 03/02 A301 RMK A01 T00250021  RH  097%=      5-min Rain = 0
KDO1 171108Z 32004KT 03/02 A301 RMK A01 T00250021  RH  097%=      5-min Rain = 0
KDO1 171109Z 32006KT 03/02 A301 RMK A01 T00250021  RH  098%=      5-min Rain = 0
KDO1 171110Z 32004KT 03/02 A301 RMK A01 T00250021  RH  098%=      5-min Rain = 0
KDO1 171111Z 33004KT 03/02 A301 RMK A01 T00260022  RH  098%=      5-min Rain = 0
KDO1 171112Z 31005KT 03/02 A301 RMK A01 T00260022  RH  097%=      5-min Rain = 0
KDO1 171113Z 31005KT 03/02 A301 RMK A01 T00260022  RH  097%=      5-min Rain = 0
KDO1 171114Z 32005KT 03/02 A301 RMK A01 T00260022  RH  097%=      5-min Rain = 0
KDO1 171115Z 33004KT 03/02 A301 RMK A01 T00260021  RH  097%=      5-min Rain = 0
KDO1 171116Z 33004KT 03/02 A301 RMK A01 T00260021  RH  097%=      5-min Rain = 0
KDO1 171117Z 33004KT 03/02 A301 RMK A01 T00250020  RH  097%=      5-min Rain = 0
KDO1 171118Z 33003KT 03/02 A301 RMK A01 T00250020  RH  097%=      5-min Rain = 0
KDO1 171119Z 32003KT 02/02 A301 RMK A01 T00240019  RH  097%=      5-min Rain = 0
KDO1 171120Z 32003KT 02/02 A3011 RMK A01 T00230018  RH  097%=      5-min Rain = 0
KDO1 171121Z 31003KT 02/02 A3011 RMK A01 T00230018  RH  097%=      5-min Rain = 0
KDO1 171122Z 31004KT 02/02 A3011 RMK A01 T00220018  RH  097%=      5-min Rain = 0
KDO1 171123Z 31003KT 02/02 A3011 RMK A01 T00220019  RH  098%=      5-min Rain = 0
KDO1 171124Z 31003KT 02/02 A3011 RMK A01 T00220019  RH  098%=      5-min Rain = 0
KDO1 171125Z 31004KT 02/02 A3011 RMK A01 T00220019  RH  098%=      5-min Rain = 0
KDO1 171126Z 31004KT 02/02 A301 RMK A01 T00220019  RH  098%=      5-min Rain = 0
KDO1 171127Z 31005KT 02/02 A301 RMK A01 T00220019  RH  098%=      5-min Rain = 0
KDO1 171128Z 32005KT 02/02 A301 RMK A01 T00210018  RH  098%=      5-min Rain = 0
KDO1 171129Z 32006KT 02/02 A301 RMK A01 T00200017  RH  098%=      5-min Rain = 0
KDO1 171130Z 33006KT 02/02 A301 RMK A01 T00200017  RH  098%=      5-min Rain = 0
KDO1 171131Z 33007KT 02/02 A301 RMK A01 T00200017  RH  098%=      5-min Rain = 0
KDO1 171132Z 33007KT 02/02 A301 RMK A01 T00200017  RH  098%=      5-min Rain = 0
KDO1 171133Z 33008KT 02/02 A301 RMK A01 T00190017  RH  098%=      5-min Rain = 0
KDO1 171134Z 33008KT 02/02 A301 RMK A01 T00190017  RH  099%=      5-min Rain = 0
KDO1 171135Z 33008KT 02/02 A301 RMK A01 T00190017  RH  099%=      5-min Rain = 0
KDO1 171136Z 33008KT 02/02 A301 RMK A01 T00190017  RH  099%=      5-min Rain = 0
KDO1 171137Z 34008KT 02/02 A301 RMK A01 T00190017  RH  099%=      5-min Rain = 0
KDO1 171138Z 34007KT 02/02 A301 RMK A01 T00180016  RH  099%=      5-min Rain = 0
KDO1 171139Z 34007KT 02/02 A301 RMK A01 T00180016  RH  099%=      5-min Rain = 0
KDO1 171140Z 34005KT 02/02 A301 RMK A01 T00170016  RH  099%=      5-min Rain = 0
KDO1 171141Z 34004KT 02/02 A301 RMK A01 T00170016  RH  099%=      5-min Rain = 0
KDO1 171142Z 35004KT 02/02 A301 RMK A01 T00170017  RH  099%=      5-min Rain = 0
KDO1 171143Z 35003KT 02/02 A301 RMK A01 T00170017  RH  100%=      5-min Rain = 0
KDO1 171144Z 34001KT 02/02 A301 RMK A01 T00170016  RH  100%=      5-min Rain = 0
KDO1 171145Z 01000KT 02/02 A301 RMK A01 T00170016  RH  100%=      5-min Rain = 0
KDO1 171146Z 14001KT 02/02 A3011 RMK A01 T00170016  RH  100%=      5-min Rain = 0
KDO1 171147Z 15002KT 02/02 A3011 RMK A01 T00160016  RH  100%=      5-min Rain = 0
KDO1 171148Z 18002KT 02/02 A3011 RMK A01 T00160016  RH  100%=      5-min Rain = 0
KDO1 171149Z 20003KT 02/02 A3011 RMK A01 T00160016  RH  100%=      5-min Rain = 0
KDO1 171150Z 19004KT 02/02 A3011 RMK A01 T00160015  RH  100%=      5-min Rain = 0
KDO1 171151Z 19004KT 01/01 A3011 RMK A01 T00140013  RH  099%=      5-min Rain = 0
KDO1 171152Z 19004KT 01/01 A3011 RMK A01 T00120010  RH  099%=      5-min Rain = 0
KDO1 171153Z 19003KT 01/01 A3011 RMK A01 T00100009  RH  099%=      5-min Rain = 0
KDO1 171154Z 20003KT 01/01 A3011 RMK A01 T00110011  RH  100%=      5-min Rain = 0
KDO1 171155Z 20004KT 01/01 A3011 RMK A01 T00110011  RH  100%=      5-min Rain = 0
KDO1 171156Z 20003KT 01/01 A3011 RMK A01 T00110010  RH  100%=      5-min Rain = 0
KDO1 171157Z 21003KT 01/01 A3011 RMK A01 T00110011  RH  100%=      5-min Rain = 0
KDO1 171158Z 23003KT 01/01 A3011 RMK A01 T00120012  RH  100%=      5-min Rain = 0
KDO1 171159Z 24002KT 01/01 A3011 RMK A01 T00120012  RH  100%=      5-min Rain = 0
KDO1 171200Z 23002KT 01/01 A3011 RMK A01 T00120012  RH  100%=      5-min Rain = 0
KDO1 171201Z 22002KT 01/01 A3011 RMK A01 T00130013  RH  100%=      5-min Rain = 0
KDO1 171202Z 25001KT 01/01 A3011 RMK A01 T00140014  RH  100%=      5-min Rain = 0
KDO1 171203Z 30002KT 01/01 A3011 RMK A01 T00140014  RH  100%=      5-min Rain = 0
KDO1 171204Z 28001KT 01/01 A3011 RMK A01 T00140014  RH  100%=      5-min Rain = 0
KDO1 171205Z 27002KT 02/02 A3011 RMK A01 T00150015  RH  100%=      5-min Rain = 0
KDO1 171206Z 30002KT 02/02 A3011 RMK A01 T00160016  RH  100%=      5-min Rain = 0
KDO1 171207Z 33001KT 02/02 A3011 RMK A01 T00160016  RH  100%=      5-min Rain = 0
KDO1 171208Z 33001KT 02/02 A3012 RMK A01 T00150015  RH  100%=      5-min Rain = 0
KDO1 171209Z 35001KT 02/01 A3012 RMK A01 T00150014  RH  100%=      5-min Rain = 0
KDO1 171210Z 35000KT 01/01 A3012 RMK A01 T00140014  RH  100%=      5-min Rain = 0
KDO1 171211Z 31000KT 01/01 A3012 RMK A01 T00140014  RH  100%=      5-min Rain = 0
KDO1 171212Z 00000KT 01/01 A3012 RMK A01 T00140014  RH  100%=      5-min Rain = 0
KDO1 171213Z 29000KT 01/01 A3012 RMK A01 T00140014  RH  100%=      5-min Rain = 0
KDO1 171214Z 29001KT 01/01 A3012 RMK A01 T00130013  RH  100%=      5-min Rain = 0
KDO1 171215Z 00000KT 01/01 A3012 RMK A01 T00120012  RH  100%=      5-min Rain = 0
KDO1 171216Z 00000KT 01/01 A3012 RMK A01 T00120012  RH  100%=      5-min Rain = 0
KDO1 171217Z 00000KT 01/01 A3012 RMK A01 T00120012  RH  100%=      5-min Rain = 0
KDO1 171218Z 04001KT 01/01 A3012 RMK A01 T00120012  RH  100%=      5-min Rain = 0
KDO1 171219Z 04001KT 01/01 A3012 RMK A01 T00120012  RH  100%=      5-min Rain = 0
KDO1 171220Z 02002KT 01/01 A3012 RMK A01 T00120011  RH  100%=      5-min Rain = 0
KDO1 171221Z 01002KT 01/01 A3012 RMK A01 T00120011  RH  100%=      5-min Rain = 0
KDO1 171222Z 01002KT 01/01 A3012 RMK A01 T00110011  RH  100%=      5-min Rain = 0
KDO1 171223Z 36002KT 01/01 A3012 RMK A01 T00110011  RH  100%=      5-min Rain = 0
KDO1 171224Z 00003KT 01/01 A3012 RMK A01 T00110011  RH  100%=      5-min Rain = 0
KDO1 171225Z 36003KT 01/01 A3012 RMK A01 T00110011  RH  100%=      5-min Rain = 0
KDO1 171226Z 36003KT 01/01 A3012 RMK A01 T00110011  RH  100%=      5-min Rain = 0
KDO1 171227Z 00003KT 01/01 A3012 RMK A01 T00100010  RH  100%=      5-min Rain = 0
KDO1 171228Z 01003KT 01/01 A3012 RMK A01 T00070007  RH  100%=      5-min Rain = 0
KDO1 171229Z 34003KT 01/01 A3012 RMK A01 T00050005  RH  100%=      5-min Rain = 0
KDO1 171230Z 30001KT 01/01 A3012 RMK A01 T00060005  RH  100%=      5-min Rain = 0
KDO1 171231Z 29001KT 01/01 A3012 RMK A01 T00070006  RH  100%=      5-min Rain = 0
KDO1 171232Z 28001KT 01/01 A3012 RMK A01 T00080008  RH  100%=      5-min Rain = 0
KDO1 171233Z 26001KT 01/01 A3012 RMK A01 T00090008  RH  100%=      5-min Rain = 0
KDO1 171234Z 24002KT 01/01 A3012 RMK A01 T00080008  RH  100%=      5-min Rain = 0
KDO1 171235Z 23001KT 01/01 A3012 RMK A01 T00070007  RH  100%=      5-min Rain = 0
KDO1 171236Z 22001KT 01/01 A3012 RMK A01 T00060006  RH  100%=      5-min Rain = 0
KDO1 171237Z 24001KT 01/01 A3012 RMK A01 T00050005  RH  100%=      5-min Rain = 0
KDO1 171238Z 29000KT 01/01 A3012 RMK A01 T00060005  RH  100%=      5-min Rain = 0
KDO1 171239Z 01000KT 01/01 A3012 RMK A01 T00070006  RH  100%=      5-min Rain = 0
KDO1 171240Z 36001KT 01/01 A3012 RMK A01 T00070007  RH  100%=      5-min Rain = 0
KDO1 171241Z 33001KT 01/01 A3012 RMK A01 T00070007  RH  100%=      5-min Rain = 0
KDO1 171242Z 33001KT 01/01 A3012 RMK A01 T00070007  RH  100%=      5-min Rain = 0
KDO1 171243Z 31002KT 01/01 A3012 RMK A01 T00080007  RH  100%=      5-min Rain = 0
KDO1 171244Z 32003KT 01/01 A3012 RMK A01 T00090009  RH  100%=      5-min Rain = 0
KDO1 171245Z 33004KT 01/01 A3012 RMK A01 T00100010  RH  100%=      5-min Rain = 0
KDO1 171246Z 33005KT 01/01 A3012 RMK A01 T00120011  RH  100%=      5-min Rain = 0
KDO1 171247Z 33006KT 01/01 A3012 RMK A01 T00120012  RH  100%=      5-min Rain = 0
KDO1 171248Z 33006KT 01/01 A3012 RMK A01 T00140014  RH  100%=      5-min Rain = 0
KDO1 171249Z 33007KT 02/02 A3012 RMK A01 T00150015  RH  100%=      5-min Rain = 0
KDO1 171250Z 33007KT 02/02 A3012 RMK A01 T00170017  RH  100%=      5-min Rain = 0
KDO1 171251Z 33007KT 02/02 A3012 RMK A01 T00180018  RH  100%=      5-min Rain = 0
KDO1 171252Z 34007KT 02/02 A3012 RMK A01 T00190019  RH  100%=      5-min Rain = 0
KDO1 171253Z 34008KT 02/02 A3012 RMK A01 T00200020  RH  100%=      5-min Rain = 0
KDO1 171254Z 34008KT 02/02 A3012 RMK A01 T00200019  RH  099%=      5-min Rain = 0
KDO1 171255Z 34008KT 02/02 A3012 RMK A01 T00210019  RH  099%=      5-min Rain = 0
KDO1 171256Z 34008KT 02/02 A3012 RMK A01 T00200018  RH  098%=      5-min Rain = 0
KDO1 171257Z 34008KT 02/02 A3012 RMK A01 T00200018  RH  098%=      5-min Rain = 0
KDO1 171258Z 34008KT 02/02 A3012 RMK A01 T00200018  RH  098%=      5-min Rain = 0
KDO1 171259Z 35007KT 02/02 A3012 RMK A01 T00200017  RH  098%=      5-min Rain = 0
KDO1 171300Z 35007KT 02/02 A3012 RMK A01 T00200017  RH  098%=      5-min Rain = 0
KDO1 171301Z 36007KT 02/02 A3012 RMK A01 T00190016  RH  098%=      5-min Rain = 0
KDO1 171302Z 36007KT 02/02 A3012 RMK A01 T00190016  RH  098%=      5-min Rain = 0
KDO1 171303Z 00007KT 02/02 A3012 RMK A01 T00190016  RH  098%=      5-min Rain = 0
KDO1 171304Z 36006KT 02/02 A3012 RMK A01 T00180015  RH  098%=      5-min Rain = 0
KDO1 171305Z 01005KT 02/01 A3013 RMK A01 T00170014  RH  098%=      5-min Rain = 0
KDO1 171306Z 01005KT 02/01 A3013 RMK A01 T00170014  RH  098%=      5-min Rain = 0
KDO1 171307Z 01004KT 02/01 A3013 RMK A01 T00160014  RH  098%=      5-min Rain = 0
KDO1 171308Z 01004KT 02/01 A3013 RMK A01 T00160014  RH  099%=      5-min Rain = 0
KDO1 171309Z 36003KT 02/01 A3013 RMK A01 T00160014  RH  098%=      5-min Rain = 0
KDO1 171310Z 01002KT 02/01 A3013 RMK A01 T00150013  RH  099%=      5-min Rain = 0
KDO1 171311Z 36002KT 02/01 A3013 RMK A01 T00150013  RH  099%=      5-min Rain = 0
KDO1 171312Z 36002KT 01/01 A3013 RMK A01 T00140012  RH  099%=      5-min Rain = 0
KDO1 171313Z 34002KT 01/01 A3014 RMK A01 T00130011  RH  098%=      5-min Rain = 0
KDO1 171314Z 32002KT 01/01 A3014 RMK A01 T00130010  RH  099%=      5-min Rain = 0
KDO1 171315Z 31001KT 01/01 A3014 RMK A01 T00120010  RH  099%=      5-min Rain = 0
KDO1 171316Z 32001KT 01/01 A3014 RMK A01 T00110010  RH  099%=      5-min Rain = 0
KDO1 171317Z 33001KT 01/01 A3014 RMK A01 T00120011  RH  099%=      5-min Rain = 0
KDO1 171318Z 34001KT 01/01 A3014 RMK A01 T00110010  RH  099%=      5-min Rain = 0
KDO1 171319Z 03000KT 01/01 A3014 RMK A01 T00090006  RH  098%=      5-min Rain = 0
KDO1 171320Z 02001KT 01/00 A3014 RMK A01 T00060002  RH  098%=      5-min Rain = 0
KDO1 171321Z 03002KT 00/M00 A3014 RMK A01 T00031001  RH  097%=      5-min Rain = 0
KDO1 171322Z 01002KT 00/M00 A3014 RMK A01 T00011003  RH  097%=      5-min Rain = 0
KDO1 171323Z 01002KT M00/M00 A3014 RMK A01 T10011004  RH  098%=      5-min Rain = 0
KDO1 171324Z 01004KT M00/M00 A3014 RMK A01 T10021004  RH  099%=      5-min Rain = 0
KDO1 171325Z 01004KT M00/M00 A3014 RMK A01 T10021003  RH  100%=      5-min Rain = 0
KDO1 171326Z 01004KT M00/M00 A3014 RMK A01 T10011001  RH  100%=      5-min Rain = 0
KDO1 171327Z 01004KT 00/00 A3014 RMK A01 T00010000  RH  100%=      5-min Rain = 0
KDO1 171328Z 01004KT 00/00 A3014 RMK A01 T00020002  RH  100%=      5-min Rain = 0
KDO1 171329Z 01004KT 00/00 A3014 RMK A01 T00030003  RH  100%=      5-min Rain = 0
KDO1 171330Z 01003KT 00/00 A3014 RMK A01 T00040003  RH  100%=      5-min Rain = 0
KDO1 171331Z 01003KT 00/00 A3015 RMK A01 T00040003  RH  100%=      5-min Rain = 0
KDO1 171332Z 01002KT 00/00 A3015 RMK A01 T00030003  RH  100%=      5-min Rain = 0
KDO1 171333Z 36000KT 00/00 A3015 RMK A01 T00030003  RH  100%=      5-min Rain = 0
KDO1 171334Z 00000KT 00/00 A3015 RMK A01 T00040004  RH  100%=      5-min Rain = 0
KDO1 171335Z 23000KT 00/00 A3015 RMK A01 T00040004  RH  100%=      5-min Rain = 0
KDO1 171336Z 21002KT 00/00 A3015 RMK A01 T00020001  RH  100%=      5-min Rain = 0
KDO1 171337Z 19003KT M00/M00 A3015 RMK A01 T10031003  RH  100%=      5-min Rain = 0
KDO1 171338Z 19004KT M01/M01 A3015 RMK A01 T10051005  RH  100%=      5-min Rain = 0
KDO1 171339Z 19004KT M01/M01 A3015 RMK A01 T10071007  RH  100%=      5-min Rain = 0
KDO1 171340Z 19003KT M01/M01 A3015 RMK A01 T10071007  RH  100%=      5-min Rain = 0
KDO1 171341Z 19003KT M01/M01 A3015 RMK A01 T10071007  RH  100%=      5-min Rain = 0
KDO1 171342Z 19003KT M01/M01 A3015 RMK A01 T10061006  RH  100%=      5-min Rain = 0
KDO1 171343Z 19002KT M01/M01 A3015 RMK A01 T10051006  RH  100%=      5-min Rain = 0
KDO1 171344Z 19002KT M01/M01 A3015 RMK A01 T10061007  RH  100%=      5-min Rain = 0
KDO1 171345Z 19003KT M01/M01 A3015 RMK A01 T10071007  RH  100%=      5-min Rain = 0
KDO1 171346Z 19003KT M01/M01 A3015 RMK A01 T10081008  RH  100%=      5-min Rain = 0
KDO1 171347Z 19004KT M01/M01 A3015 RMK A01 T10091009  RH  100%=      5-min Rain = 0
KDO1 171348Z 18004KT M01/M01 A3015 RMK A01 T10091009  RH  100%=      5-min Rain = 0
KDO1 171349Z 18004KT M01/M01 A3015 RMK A01 T10091009  RH  100%=      5-min Rain = 0
KDO1 171350Z 18004KT M01/M01 A3015 RMK A01 T10091009  RH  100%=      5-min Rain = 0
KDO1 171351Z 19005KT M01/M01 A3016 RMK A01 T10091009  RH  100%=      5-min Rain = 0
KDO1 171352Z 19006KT M01/M01 A3016 RMK A01 T10091009  RH  100%=      5-min Rain = 0
KDO1 171353Z 20005KT M01/M01 A3016 RMK A01 T10101010  RH  100%=      5-min Rain = 0
KDO1 171354Z 20005KT M01/M01 A3016 RMK A01 T10101010  RH  100%=      5-min Rain = 0
KDO1 171355Z 21005KT M01/M01 A3016 RMK A01 T10111011  RH  100%=      5-min Rain = 0
KDO1 171356Z 20005KT M01/M01 A3016 RMK A01 T10111011  RH  100%=      5-min Rain = 0
KDO1 171357Z 19004KT M01/M01 A3016 RMK A01 T10121012  RH  100%=      5-min Rain = 0
KDO1 171358Z 20004KT M01/M01 A3016 RMK A01 T10121012  RH  100%=      5-min Rain = 0
KDO1 171359Z 20004KT M01/M01 A3016 RMK A01 T10131013  RH  100%=      5-min Rain = 0
KDO1 171400Z 20004KT M01/M01 A3016 RMK A01 T10141014  RH  100%=      5-min Rain = 0
KDO1 171401Z 22004KT M01/M01 A3016 RMK A01 T10141014  RH  100%=      5-min Rain = 0
KDO1 171402Z 22002KT M01/M01 A3016 RMK A01 T10141014  RH  100%=      5-min Rain = 0
KDO1 171403Z 24003KT M01/M01 A3016 RMK A01 T10091009  RH  100%=      5-min Rain = 0
KDO1 171404Z 23003KT M01/M01 A3016 RMK A01 T10061006  RH  100%=      5-min Rain = 0
KDO1 171405Z 22005KT M01/M01 A3016 RMK A01 T10061006  RH  100%=      5-min Rain = 0
KDO1 171406Z 23003KT M01/M01 A3016 RMK A01 T10071007  RH  100%=      5-min Rain = 0
KDO1 171407Z 22003KT M01/M01 A3016 RMK A01 T10071007  RH  100%=      5-min Rain = 0
KDO1 171408Z 22003KT M01/M01 A3016 RMK A01 T10071007  RH  100%=      5-min Rain = 0
KDO1 171409Z 22003KT M01/M01 A3016 RMK A01 T10071007  RH  100%=      5-min Rain = 0
KDO1 171410Z 22004KT M01/M01 A3016 RMK A01 T10061007  RH  100%=      5-min Rain = 0
KDO1 171411Z 22003KT M01/M01 A3016 RMK A01 T10071007  RH  100%=      5-min Rain = 0
KDO1 171412Z 26003KT M01/M01 A3016 RMK A01 T10071007  RH  100%=      5-min Rain = 0
KDO1 171413Z 29003KT M01/M01 A3016 RMK A01 T10071007  RH  100%=      5-min Rain = 0
KDO1 171414Z 27003KT M01/M01 A3016 RMK A01 T10071007  RH  100%=      5-min Rain = 0
KDO1 171415Z 25004KT M01/M01 A3016 RMK A01 T10071007  RH  100%=      5-min Rain = 0
KDO1 171416Z 25004KT M01/M01 A3016 RMK A01 T10071007  RH  100%=      5-min Rain = 0
KDO1 171417Z 25005KT M01/M01 A3016 RMK A01 T10061006  RH  100%=      5-min Rain = 0
KDO1 171418Z 25004KT M01/M01 A3016 RMK A01 T10051006  RH  100%=      5-min Rain = 0
KDO1 171419Z 24004KT M00/M01 A3016 RMK A01 T10041005  RH  100%=      5-min Rain = 0
KDO1 171420Z 24004KT M00/M00 A3016 RMK A01 T10041004  RH  100%=      5-min Rain = 0
KDO1 171421Z 25004KT M00/M00 A3016 RMK A01 T10021003  RH  100%=      5-min Rain = 0
KDO1 171422Z 26003KT M00/M00 A3016 RMK A01 T10021002  RH  100%=      5-min Rain = 0
KDO1 171423Z 24003KT M00/M00 A3016 RMK A01 T10011001  RH  100%=      5-min Rain = 0
KDO1 171424Z 24004KT 00/00 A3016 RMK A01 T000000-0  RH  100%=      5-min Rain = 0
KDO1 171425Z 26003KT 00/00 A3016 RMK A01 T00020002  RH  100%=      5-min Rain = 0
KDO1 171426Z 26003KT 00/00 A3016 RMK A01 T00040004  RH  100%=      5-min Rain = 0
KDO1 171427Z 24004KT 01/01 A3016 RMK A01 T00050005  RH  100%=      5-min Rain = 0
KDO1 171428Z 24004KT 01/01 A3016 RMK A01 T00060006  RH  100%=      5-min Rain = 0
KDO1 171429Z 24005KT 01/01 A3016 RMK A01 T00070007  RH  100%=      5-min Rain = 0
KDO1 171430Z 25005KT 01/01 A3016 RMK A01 T00080007  RH  100%=      5-min Rain = 0
KDO1 171431Z 25005KT 01/01 A3016 RMK A01 T00090008  RH  100%=      5-min Rain = 0
KDO1 171432Z 25004KT 01/01 A3016 RMK A01 T00100010  RH  100%=      5-min Rain = 0
KDO1 171433Z 25004KT 01/01 A3016 RMK A01 T00120011  RH  100%=      5-min Rain = 0
KDO1 171434Z 25004KT 01/01 A3016 RMK A01 T00130013  RH  100%=      5-min Rain = 0
KDO1 171435Z 25005KT 01/01 A3016 RMK A01 T00140014  RH  100%=      5-min Rain = 0
KDO1 171436Z 25005KT 02/02 A3016 RMK A01 T00150015  RH  100%=      5-min Rain = 0
KDO1 171437Z 24004KT 02/02 A3016 RMK A01 T00160016  RH  100%=      5-min Rain = 0
KDO1 171438Z 24004KT 02/02 A3016 RMK A01 T00170017  RH  100%=      5-min Rain = 0
KDO1 171439Z 24003KT 02/02 A3016 RMK A01 T00180018  RH  100%=      5-min Rain = 0
KDO1 171440Z 25003KT 02/02 A3016 RMK A01 T00190019  RH  100%=      5-min Rain = 0
KDO1 171441Z 24002KT 02/02 A3016 RMK A01 T00190019  RH  100%=      5-min Rain = 0
KDO1 171442Z 24001KT 02/02 A3016 RMK A01 T00210021  RH  100%=      5-min Rain = 0
KDO1 171443Z 22000KT 02/02 A3016 RMK A01 T00230022  RH  100%=      5-min Rain = 0
KDO1 171444Z 25000KT 03/02 A3016 RMK A01 T00250024  RH  100%=      5-min Rain = 0
KDO1 171445Z 24000KT 03/03 A3016 RMK A01 T00260026  RH  100%=      5-min Rain = 0
KDO1 171446Z 00000KT 03/03 A3016 RMK A01 T00260025  RH  099%=      5-min Rain = 0
KDO1 171447Z 32000KT 03/02 A3016 RMK A01 T00260024  RH  099%=      5-min Rain = 0
KDO1 171448Z 29002KT 03/03 A3016 RMK A01 T00270025  RH  098%=      5-min Rain = 0
KDO1 171449Z 29003KT 03/02 A3016 RMK A01 T00280024  RH  098%=      5-min Rain = 0
KDO1 171450Z 31003KT 03/03 A3016 RMK A01 T00290025  RH  097%=      5-min Rain = 0
KDO1 171451Z 31002KT 03/03 A3015 RMK A01 T00300026  RH  097%=      5-min Rain = 0
KDO1 171452Z 31002KT 03/03 A3015 RMK A01 T00320027  RH  097%=      5-min Rain = 0
KDO1 171453Z 30002KT 03/03 A3015 RMK A01 T00320026  RH  096%=      5-min Rain = 0
KDO1 171454Z 29002KT 03/03 A3015 RMK A01 T00330025  RH  095%=      5-min Rain = 0
KDO1 171455Z 33001KT 03/03 A3015 RMK A01 T00340025  RH  094%=      5-min Rain = 0
KDO1 171456Z 32001KT 04/03 A3016 RMK A01 T00350026  RH  094%=      5-min Rain = 0
KDO1 171457Z 29001KT 04/03 A3016 RMK A01 T00350027  RH  094%=      5-min Rain = 0
KDO1 171458Z 32002KT 04/03 A3016 RMK A01 T00360027  RH  094%=      5-min Rain = 0
KDO1 171459Z 33001KT 04/03 A3016 RMK A01 T00380026  RH  092%=      5-min Rain = 0
KDO1 171500Z 34001KT 04/03 A3016 RMK A01 T00390026  RH  091%=      5-min Rain = 0
KDO1 171501Z 05001KT 04/03 A3016 RMK A01 T00400025  RH  090%=      5-min Rain = 0
KDO1 171502Z 07001KT 04/02 A3016 RMK A01 T00400024  RH  090%=      5-min Rain = 0
KDO1 171503Z 08002KT 04/02 A3016 RMK A01 T00380023  RH  090%=      5-min Rain = 0
KDO1 171504Z 07002KT 04/02 A3016 RMK A01 T00370023  RH  091%=      5-min Rain = 0
KDO1 171505Z 06002KT 04/02 A3016 RMK A01 T00380023  RH  090%=      5-min Rain = 0
KDO1 171506Z 06002KT 04/02 A3016 RMK A01 T00360021  RH  090%=      5-min Rain = 0
KDO1 171507Z 05002KT 04/02 A3016 RMK A01 T00350021  RH  090%=      5-min Rain = 0
KDO1 171508Z 05002KT 04/02 A3016 RMK A01 T00350021  RH  090%=      5-min Rain = 0
KDO1 171509Z 06002KT 03/02 A3016 RMK A01 T00340020  RH  091%=      5-min Rain = 0
KDO1 171510Z 06002KT 03/02 A3016 RMK A01 T00320018  RH  091%=      5-min Rain = 0
KDO1 171511Z 06002KT 03/02 A3016 RMK A01 T00320020  RH  092%=      5-min Rain = 0
KDO1 171512Z 07003KT 03/02 A3016 RMK A01 T00320020  RH  092%=      5-min Rain = 0
KDO1 171513Z 08002KT 03/02 A3016 RMK A01 T00330021  RH  092%=      5-min Rain = 0
KDO1 171514Z 10002KT 04/02 A3016 RMK A01 T00350024  RH  092%=      5-min Rain = 0
KDO1 171515Z 12002KT 04/02 A3017 RMK A01 T00360023  RH  091%=      5-min Rain = 0
KDO1 171516Z 13002KT 04/03 A3017 RMK A01 T00380025  RH  091%=      5-min Rain = 0
KDO1 171517Z 12003KT 04/03 A3017 RMK A01 T00400025  RH  090%=      5-min Rain = 0
KDO1 171518Z 12003KT 04/02 A3017 RMK A01 T00400023  RH  089%=      5-min Rain = 0
KDO1 171519Z 13002KT 04/02 A3017 RMK A01 T00410024  RH  089%=      5-min Rain = 0
KDO1 171520Z 15003KT 04/02 A3017 RMK A01 T00410023  RH  088%=      5-min Rain = 0
KDO1 171521Z 14003KT 04/02 A3017 RMK A01 T00410023  RH  088%=      5-min Rain = 0
KDO1 171522Z 14002KT 04/02 A3017 RMK A01 T00410022  RH  087%=      5-min Rain = 0
KDO1 171523Z 13002KT 04/02 A3017 RMK A01 T00400021  RH  088%=      5-min Rain = 0
KDO1 171524Z 12002KT 04/02 A3017 RMK A01 T00400023  RH  088%=      5-min Rain = 0
KDO1 171525Z 12002KT 04/02 A3017 RMK A01 T00410023  RH  088%=      5-min Rain = 0
KDO1 171526Z 12002KT 04/02 A3017 RMK A01 T00430024  RH  088%=      5-min Rain = 0
KDO1 171527Z 12002KT 04/03 A3017 RMK A01 T00440026  RH  088%=      5-min Rain = 0
KDO1 171528Z 13002KT 05/03 A3017 RMK A01 T00460026  RH  087%=      5-min Rain = 0
KDO1 171529Z 12003KT 05/03 A3017 RMK A01 T00470028  RH  087%=      5-min Rain = 0
KDO1 171530Z 14003KT 05/03 A3017 RMK A01 T00480025  RH  085%=      5-min Rain = 0
KDO1 171531Z 14002KT 05/03 A3017 RMK A01 T00480025  RH  085%=      5-min Rain = 0
KDO1 171532Z 13002KT 05/03 A3017 RMK A01 T00480025  RH  085%=      5-min Rain = 0
KDO1 171533Z 11002KT 05/03 A3017 RMK A01 T00490027  RH  085%=      5-min Rain = 0
KDO1 171534Z 10001KT 05/03 A3017 RMK A01 T00500026  RH  084%=      5-min Rain = 0
KDO1 171535Z 12001KT 05/03 A3017 RMK A01 T00500026  RH  084%=      5-min Rain = 0
KDO1 171536Z 12001KT 05/03 A3017 RMK A01 T00500025  RH  084%=      5-min Rain = 0
KDO1 171537Z 09002KT 05/02 A3017 RMK A01 T00500024  RH  083%=      5-min Rain = 0
KDO1 171538Z 08002KT 05/03 A3017 RMK A01 T00510026  RH  084%=      5-min Rain = 0
KDO1 171539Z 07001KT 05/03 A3017 RMK A01 T00510025  RH  084%=      5-min Rain = 0
KDO1 171540Z 09001KT 05/03 A3017 RMK A01 T00510026  RH  084%=      5-min Rain = 0
KDO1 171541Z 08000KT 05/03 A3017 RMK A01 T00510025  RH  084%=      5-min Rain = 0
KDO1 171542Z 11001KT 05/03 A3017 RMK A01 T00510026  RH  084%=      5-min Rain = 0
KDO1 171543Z 11002KT 05/03 A3017 RMK A01 T00520026  RH  083%=      5-min Rain = 0
KDO1 171544Z 12003KT 05/03 A3017 RMK A01 T00520026  RH  083%=      5-min Rain = 0
KDO1 171545Z 13003KT 05/03 A3017 RMK A01 T00520028  RH  084%=      5-min Rain = 0
KDO1 171546Z 13004KT 05/03 A3016 RMK A01 T00540028  RH  083%=      5-min Rain = 0
KDO1 171547Z 13004KT 06/03 A3016 RMK A01 T00550027  RH  082%=      5-min Rain = 0
KDO1 171548Z 13004KT 06/03 A3016 RMK A01 T00550025  RH  081%=      5-min Rain = 0
KDO1 171549Z 14004KT 06/03 A3016 RMK A01 T00550025  RH  081%=      5-min Rain = 0
KDO1 171550Z 13004KT 06/03 A3016 RMK A01 T00550026  RH  082%=      5-min Rain = 0
KDO1 171551Z 14004KT 06/03 A3017 RMK A01 T00560027  RH  082%=      5-min Rain = 0
KDO1 171552Z 15003KT 06/03 A3017 RMK A01 T00570027  RH  081%=      5-min Rain = 0
KDO1 171553Z 14004KT 06/03 A3017 RMK A01 T00590029  RH  081%=      5-min Rain = 0
KDO1 171554Z 14004KT 06/03 A3017 RMK A01 T00610029  RH  080%=      5-min Rain = 0
KDO1 171555Z 15005KT 06/03 A3017 RMK A01 T00610029  RH  080%=      5-min Rain = 0
KDO1 171556Z 15005KT 06/03 A3017 RMK A01 T00610029  RH  080%=      5-min Rain = 0
KDO1 171557Z 16005KT 06/03 A3017 RMK A01 T00610030  RH  080%=      5-min Rain = 0
KDO1 171558Z 17005KT 06/03 A3017 RMK A01 T00610032  RH  081%=      5-min Rain = 0
KDO1 171559Z 17006KT 06/03 A3017 RMK A01 T00610031  RH  081%=      5-min Rain = 0
KDO1 171600Z 17006KT 06/03 A3017 RMK A01 T00610032  RH  081%=      5-min Rain = 0
KDO1 171601Z 18006KT 06/03 A3017 RMK A01 T00620032  RH  081%=      5-min Rain = 0
KDO1 171602Z 18006KT 06/03 A3017 RMK A01 T00630032  RH  081%=      5-min Rain = 0
KDO1 171603Z 17007KT 06/03 A3018 RMK A01 T00630031  RH  080%=      5-min Rain = 0
KDO1 171604Z 17006KT 06/03 A3018 RMK A01 T00620031  RH  081%=      5-min Rain = 0
KDO1 171605Z 17006KT 06/03 A3018 RMK A01 T00620030  RH  080%=      5-min Rain = 0
KDO1 171606Z 16005KT 06/03 A3018 RMK A01 T00630030  RH  080%=      5-min Rain = 0
KDO1 171607Z 17004KT 06/03 A3018 RMK A01 T00630031  RH  079%=      5-min Rain = 0
KDO1 171608Z 16006KT 06/03 A3018 RMK A01 T00640030  RH  079%=      5-min Rain = 0
KDO1 171609Z 16006KT 06/03 A3018 RMK A01 T00640028  RH  078%=      5-min Rain = 0
KDO1 171610Z 16004KT 06/03 A3018 RMK A01 T00640029  RH  078%=      5-min Rain = 0
KDO1 171611Z 16004KT 07/03 A3018 RMK A01 T00650029  RH  078%=      5-min Rain = 0
KDO1 171612Z 17004KT 07/03 A3018 RMK A01 T00660027  RH  076%=      5-min Rain = 0
KDO1 171613Z 16004KT 07/03 A3018 RMK A01 T00660027  RH  076%=      5-min Rain = 0
KDO1 171614Z 17003KT 07/03 A3018 RMK A01 T00660028  RH  077%=      5-min Rain = 0
KDO1 171615Z 17004KT 07/03 A3019 RMK A01 T00670028  RH  076%=      5-min Rain = 0
KDO1 171616Z 19003KT 07/03 A3019 RMK A01 T00680028  RH  076%=      5-min Rain = 0
KDO1 171617Z 19002KT 07/03 A3019 RMK A01 T00680028  RH  076%=      5-min Rain = 0
KDO1 171618Z 19002KT 07/03 A3019 RMK A01 T00670028  RH  076%=      5-min Rain = 0
KDO1 171619Z 18003KT 07/03 A3019 RMK A01 T00670027  RH  076%=      5-min Rain = 0
KDO1 171620Z 16003KT 07/03 A3019 RMK A01 T00660027  RH  076%=      5-min Rain = 0
KDO1 171621Z 17003KT 07/03 A3019 RMK A01 T00670027  RH  075%=      5-min Rain = 0
KDO1 171622Z 17003KT 07/03 A3019 RMK A01 T00690028  RH  075%=      5-min Rain = 0
KDO1 171623Z 19004KT 07/03 A302 RMK A01 T00700028  RH  074%=      5-min Rain = 0
KDO1 171624Z 18004KT 07/03 A302 RMK A01 T00710028  RH  074%=      5-min Rain = 0
KDO1 171625Z 18004KT 07/03 A302 RMK A01 T00710027  RH  073%=      5-min Rain = 0
KDO1 171626Z 17003KT 07/03 A302 RMK A01 T00710027  RH  074%=      5-min Rain = 0
KDO1 171627Z 16004KT 07/03 A302 RMK A01 T00720026  RH  073%=      5-min Rain = 0
KDO1 171628Z 16004KT 07/03 A302 RMK A01 T00720026  RH  072%=      5-min Rain = 0
KDO1 171629Z 18004KT 07/03 A302 RMK A01 T00730027  RH  073%=      5-min Rain = 0
KDO1 171630Z 17004KT 08/03 A302 RMK A01 T00750027  RH  072%=      5-min Rain = 0
KDO1 171631Z 17004KT 08/03 A302 RMK A01 T00760027  RH  071%=      5-min Rain = 0
KDO1 171632Z 17005KT 08/03 A302 RMK A01 T00770028  RH  071%=      5-min Rain = 0
KDO1 171633Z 18004KT 08/03 A302 RMK A01 T00780030  RH  072%=      5-min Rain = 0
KDO1 171634Z 19005KT 08/03 A302 RMK A01 T00800031  RH  071%=      5-min Rain = 0
KDO1 171635Z 18004KT 08/03 A302 RMK A01 T00800029  RH  070%=      5-min Rain = 0
KDO1 171636Z 18003KT 08/03 A302 RMK A01 T00790029  RH  071%=      5-min Rain = 0
KDO1 171637Z 17004KT 08/03 A302 RMK A01 T00800030  RH  071%=      5-min Rain = 0
KDO1 171638Z 18005KT 08/03 A302 RMK A01 T00810029  RH  070%=      5-min Rain = 0
KDO1 171639Z 19006KT 08/03 A302 RMK A01 T00820029  RH  069%=      5-min Rain = 0
KDO1 171640Z 19005KT 08/03 A302 RMK A01 T00810028  RH  069%=      5-min Rain = 0
KDO1 171641Z 19004KT 08/03 A302 RMK A01 T00810029  RH  070%=      5-min Rain = 0
KDO1 171642Z 18005KT 08/03 A302 RMK A01 T00810031  RH  071%=      5-min Rain = 0
KDO1 171643Z 19005KT 08/03 A302 RMK A01 T00840033  RH  070%=      5-min Rain = 0
KDO1 171644Z 20005KT 09/03 A302 RMK A01 T00850029  RH  068%=      5-min Rain = 0
KDO1 171645Z 19005KT 08/03 A302 RMK A01 T00840028  RH  068%=      5-min Rain = 0
KDO1 171646Z 18004KT 08/03 A302 RMK A01 T00830029  RH  069%=      5-min Rain = 0
KDO1 171647Z 17004KT 08/03 A302 RMK A01 T00840029  RH  068%=      5-min Rain = 0
KDO1 171648Z 18004KT 09/03 A302 RMK A01 T00860031  RH  068%=      5-min Rain = 0
KDO1 171649Z 18004KT 09/03 A302 RMK A01 T00870031  RH  068%=      5-min Rain = 0
KDO1 171650Z 17004KT 09/03 A302 RMK A01 T00880030  RH  067%=      5-min Rain = 0
KDO1 171651Z 18004KT 09/03 A302 RMK A01 T00880031  RH  067%=      5-min Rain = 0
KDO1 171652Z 19004KT 09/03 A302 RMK A01 T00890032  RH  067%=      5-min Rain = 0
KDO1 171653Z 18002KT 09/03 A302 RMK A01 T00890030  RH  066%=      5-min Rain = 0
KDO1 171654Z 17004KT 09/03 A302 RMK A01 T00890031  RH  067%=      5-min Rain = 0
KDO1 171655Z 17004KT 09/03 A302 RMK A01 T00900033  RH  068%=      5-min Rain = 0
KDO1 171656Z 17004KT 09/03 A302 RMK A01 T00910033  RH  067%=      5-min Rain = 0
KDO1 171657Z 19002KT 09/03 A302 RMK A01 T00910034  RH  067%=      5-min Rain = 0
KDO1 171658Z 23002KT 09/03 A302 RMK A01 T00910033  RH  067%=      5-min Rain = 0
KDO1 171659Z 18003KT 09/04 A302 RMK A01 T00930035  RH  067%=      5-min Rain = 0
KDO1 171700Z 16003KT 09/03 A302 RMK A01 T00940033  RH  066%=      5-min Rain = 0
KDO1 171701Z 19003KT 09/04 A302 RMK A01 T00940036  RH  067%=      5-min Rain = 0
KDO1 171702Z 23001KT 10/04 A302 RMK A01 T00960036  RH  066%=      5-min Rain = 0
KDO1 171703Z 23001KT 10/04 A3021 RMK A01 T00970036  RH  065%=      5-min Rain = 0
KDO1 171704Z 20002KT 10/03 A3021 RMK A01 T00990033  RH  064%=      5-min Rain = 0
KDO1 171705Z 17003KT 10/03 A3021 RMK A01 T00990034  RH  064%=      5-min Rain = 0
KDO1 171706Z 18003KT 10/03 A3021 RMK A01 T01000034  RH  064%=      5-min Rain = 0
KDO1 171707Z 18003KT 10/04 A3021 RMK A01 T01020037  RH  064%=      5-min Rain = 0
KDO1 171708Z 18002KT 10/04 A3021 RMK A01 T01020036  RH  063%=      5-min Rain = 0
KDO1 171709Z 16001KT 10/03 A302 RMK A01 T01010034  RH  063%=      5-min Rain = 0
KDO1 171710Z 17002KT 10/04 A302 RMK A01 T01020035  RH  063%=      5-min Rain = 0
KDO1 171711Z 19001KT 10/03 A302 RMK A01 T01030034  RH  062%=      5-min Rain = 0
KDO1 171712Z 19001KT 10/03 A302 RMK A01 T01030034  RH  062%=      5-min Rain = 0
KDO1 171713Z 21002KT 10/03 A302 RMK A01 T01030033  RH  062%=      5-min Rain = 0
KDO1 171714Z 20002KT 10/03 A302 RMK A01 T01030033  RH  062%=      5-min Rain = 0
KDO1 171715Z 19002KT 10/04 A302 RMK A01 T01030035  RH  062%=      5-min Rain = 0
KDO1 171716Z 19002KT 10/03 A302 RMK A01 T01030034  RH  062%=      5-min Rain = 0
KDO1 171717Z 19001KT 10/03 A302 RMK A01 T01030034  RH  062%=      5-min Rain = 0
KDO1 171718Z 17003KT 10/03 A302 RMK A01 T01040034  RH  062%=      5-min Rain = 0
KDO1 171719Z 16003KT 11/03 A302 RMK A01 T01060034  RH  061%=      5-min Rain = 0
KDO1 171720Z 13003KT 11/04 A302 RMK A01 T01070035  RH  061%=      5-min Rain = 0
KDO1 171721Z 16003KT 11/04 A302 RMK A01 T01080035  RH  061%=      5-min Rain = 0
KDO1 171722Z 16003KT 11/04 A302 RMK A01 T01090037  RH  061%=      5-min Rain = 0
KDO1 171723Z 15004KT 11/04 A302 RMK A01 T01120038  RH  060%=      5-min Rain = 0
KDO1 171724Z 13005KT 11/04 A302 RMK A01 T01120035  RH  059%=      5-min Rain = 0
KDO1 171725Z 13003KT 11/03 A302 RMK A01 T01090034  RH  060%=      5-min Rain = 0
KDO1 171726Z 12002KT 11/04 A302 RMK A01 T01080035  RH  061%=      5-min Rain = 0
KDO1 171727Z 11002KT 11/04 A302 RMK A01 T01070035  RH  061%=      5-min Rain = 0
KDO1 171728Z 08001KT 11/04 A302 RMK A01 T01070036  RH  061%=      5-min Rain = 0
KDO1 171729Z 06001KT 11/04 A302 RMK A01 T01100037  RH  061%=      5-min Rain = 0
KDO1 171730Z 11001KT 11/04 A302 RMK A01 T01130039  RH  061%=      5-min Rain = 0
KDO1 171731Z 11002KT 12/04 A302 RMK A01 T01150038  RH  059%=      5-min Rain = 0
KDO1 171732Z 13001KT 12/04 A302 RMK A01 T01160037  RH  058%=      5-min Rain = 0
KDO1 171733Z 00000KT 12/04 A302 RMK A01 T01160037  RH  058%=      5-min Rain = 0
KDO1 171734Z 01000KT 12/04 A302 RMK A01 T01170039  RH  059%=      5-min Rain = 0
KDO1 171735Z 00001KT 12/04 A3019 RMK A01 T01180038  RH  058%=      5-min Rain = 0
KDO1 171736Z 01002KT 12/04 A3019 RMK A01 T01160036  RH  058%=      5-min Rain = 0
KDO1 171737Z 01001KT 11/04 A3019 RMK A01 T01140036  RH  059%=      5-min Rain = 0
KDO1 171738Z 33001KT 11/03 A3019 RMK A01 T01130034  RH  058%=      5-min Rain = 0
KDO1 171739Z 32002KT 11/03 A3019 RMK A01 T01120034  RH  059%=      5-min Rain = 0
KDO1 171740Z 31004KT 11/04 A3019 RMK A01 T01130035  RH  059%=      5-min Rain = 0
KDO1 171741Z 33002KT 11/04 A3019 RMK A01 T01140035  RH  058%=      5-min Rain = 0
KDO1 171742Z 34001KT 12/03 A3019 RMK A01 T01160033  RH  057%=      5-min Rain = 0
KDO1 171743Z 02000KT 12/03 A3019 RMK A01 T01160032  RH  056%=      5-min Rain = 0
KDO1 171744Z 10000KT 12/03 A3019 RMK A01 T01160033  RH  057%=      5-min Rain = 0
KDO1 171745Z 11001KT 12/04 A3019 RMK A01 T01180035  RH  057%=      5-min Rain = 0
KDO1 171746Z 11001KT 12/03 A3019 RMK A01 T01200034  RH  055%=      5-min Rain = 0
KDO1 171747Z 11001KT 12/03 A3019 RMK A01 T01210033  RH  055%=      5-min Rain = 0
KDO1 171748Z 09001KT 12/03 A3019 RMK A01 T01220034  RH  055%=      5-min Rain = 0
KDO1 171749Z 07000KT 12/04 A3019 RMK A01 T01240035  RH  055%=      5-min Rain = 0
KDO1 171750Z 04000KT 13/03 A3019 RMK A01 T01250034  RH  054%=      5-min Rain = 0
KDO1 171751Z 35000KT 12/03 A3019 RMK A01 T01240033  RH  054%=      5-min Rain = 0
KDO1 171752Z 34001KT 12/03 A3019 RMK A01 T01230034  RH  054%=      5-min Rain = 0
KDO1 171753Z 26001KT 12/03 A3019 RMK A01 T01230033  RH  054%=      5-min Rain = 0
KDO1 171754Z 26002KT 12/03 A3019 RMK A01 T01240034  RH  054%=      5-min Rain = 0
KDO1 171755Z 22003KT 13/03 A3019 RMK A01 T01260033  RH  053%=      5-min Rain = 0
KDO1 171756Z 20003KT 13/03 A3019 RMK A01 T01250034  RH  054%=      5-min Rain = 0
KDO1 171757Z 21003KT 13/04 A3019 RMK A01 T01270035  RH  054%=      5-min Rain = 0
KDO1 171758Z 21003KT 13/04 A3019 RMK A01 T01270035  RH  053%=      5-min Rain = 0
KDO1 171759Z 22004KT 13/03 A3019 RMK A01 T01280034  RH  053%=      5-min Rain = 0
KDO1 171800Z 22003KT 13/03 A3019 RMK A01 T01280033  RH  052%=      5-min Rain = 0
KDO1 171801Z 22002KT 13/03 A3019 RMK A01 T01280033  RH  052%=      5-min Rain = 0
KDO1 171802Z 21003KT 13/03 A3019 RMK A01 T01280033  RH  053%=      5-min Rain = 0
KDO1 171803Z 21001KT 13/03 A3019 RMK A01 T01270032  RH  052%=      5-min Rain = 0
KDO1 171804Z 21003KT 13/03 A3019 RMK A01 T01280033  RH  053%=      5-min Rain = 0
KDO1 171805Z 21004KT 13/03 A3019 RMK A01 T01290034  RH  052%=      5-min Rain = 0
KDO1 171806Z 21005KT 13/03 A3019 RMK A01 T01300034  RH  052%=      5-min Rain = 0
KDO1 171807Z 22004KT 13/03 A3019 RMK A01 T01310033  RH  051%=      5-min Rain = 0
KDO1 171808Z 23005KT 13/03 A3019 RMK A01 T01320033  RH  051%=      5-min Rain = 0
KDO1 171809Z 23004KT 13/03 A3019 RMK A01 T01320032  RH  051%=      5-min Rain = 0
KDO1 171810Z 25004KT 13/03 A3019 RMK A01 T01330033  RH  051%=      5-min Rain = 0
KDO1 171811Z 25005KT 13/03 A3019 RMK A01 T01340032  RH  050%=      5-min Rain = 0
KDO1 171812Z 23005KT 13/04 A3019 RMK A01 T01340035  RH  051%=      5-min Rain = 0
KDO1 171813Z 21005KT 14/03 A3018 RMK A01 T01360034  RH  050%=      5-min Rain = 0
KDO1 171814Z 21004KT 14/03 A3018 RMK A01 T01360033  RH  050%=      5-min Rain = 0
KDO1 171815Z 21003KT 14/03 A3018 RMK A01 T01370032  RH  049%=      5-min Rain = 0
KDO1 171816Z 25003KT 14/03 A3018 RMK A01 T01360033  RH  050%=      5-min Rain = 0
KDO1 171817Z 25003KT 14/03 A3018 RMK A01 T01360032  RH  049%=      5-min Rain = 0
KDO1 171818Z 20003KT 14/03 A3018 RMK A01 T01360031  RH  049%=      5-min Rain = 0
KDO1 171819Z 17001KT 14/03 A3018 RMK A01 T01360030  RH  049%=      5-min Rain = 0
KDO1 171820Z 15000KT 14/03 A3018 RMK A01 T01370031  RH  048%=      5-min Rain = 0
KDO1 171821Z 21002KT 14/03 A3018 RMK A01 T01390031  RH  048%=      5-min Rain = 0
KDO1 171822Z 28003KT 14/03 A3018 RMK A01 T01400032  RH  048%=      5-min Rain = 0
KDO1 171823Z 28002KT 14/03 A3018 RMK A01 T01410032  RH  048%=      5-min Rain = 0
KDO1 171824Z 21003KT 14/03 A3018 RMK A01 T01410032  RH  048%=      5-min Rain = 0
KDO1 171825Z 22003KT 14/03 A3018 RMK A01 T01420032  RH  048%=      5-min Rain = 0
KDO1 171826Z 23005KT 14/03 A3017 RMK A01 T01430032  RH  047%=      5-min Rain = 0
KDO1 171827Z 24003KT 14/03 A3017 RMK A01 T01440029  RH  046%=      5-min Rain = 0
KDO1 171828Z 22002KT 14/03 A3017 RMK A01 T01430028  RH  046%=      5-min Rain = 0
KDO1 171829Z 24001KT 14/03 A3017 RMK A01 T01430028  RH  046%=      5-min Rain = 0
KDO1 171830Z 26000KT 14/03 A3017 RMK A01 T01430028  RH  046%=      5-min Rain = 0
KDO1 171831Z 24003KT 14/03 A3017 RMK A01 T01440030  RH  046%=      5-min Rain = 0
KDO1 171832Z 23004KT 15/03 A3017 RMK A01 T01450027  RH  045%=      5-min Rain = 0
KDO1 171833Z 25003KT 15/03 A3017 RMK A01 T01460028  RH  045%=      5-min Rain = 0
KDO1 171834Z 25003KT 15/03 A3017 RMK A01 T01450028  RH  045%=      5-min Rain = 0
KDO1 171835Z 26003KT 15/03 A3017 RMK A01 T01450028  RH  045%=      5-min Rain = 0
KDO1 171836Z 27002KT 14/03 A3017 RMK A01 T01440027  RH  045%=      5-min Rain = 0
KDO1 171837Z 26003KT 14/03 A3017 RMK A01 T01440028  RH  045%=      5-min Rain = 0
KDO1 171838Z 25002KT 14/03 A3017 RMK A01 T01440028  RH  045%=      5-min Rain = 0
KDO1 171839Z 30001KT 14/03 A3016 RMK A01 T01440027  RH  045%=      5-min Rain = 0
KDO1 171840Z 05000KT 15/03 A3016 RMK A01 T01450026  RH  045%=      5-min Rain = 0
KDO1 171841Z 00000KT 15/02 A3016 RMK A01 T01460024  RH  044%=      5-min Rain = 0
KDO1 171842Z 17001KT 15/03 A3016 RMK A01 T01470027  RH  044%=      5-min Rain = 0
KDO1 171843Z 16002KT 15/03 A3016 RMK A01 T01500026  RH  043%=      5-min Rain = 0
KDO1 171844Z 16002KT 15/02 A3016 RMK A01 T01530024  RH  042%=      5-min Rain = 0
KDO1 171845Z 16002KT 16/02 A3016 RMK A01 T01550021  RH  041%=      5-min Rain = 0
KDO1 171846Z 17003KT 16/02 A3016 RMK A01 T01560022  RH  040%=      5-min Rain = 0
KDO1 171847Z 17003KT 16/02 A3016 RMK A01 T01560021  RH  040%=      5-min Rain = 0
KDO1 171848Z 19004KT 16/02 A3016 RMK A01 T01560022  RH  040%=      5-min Rain = 0
KDO1 171849Z 18003KT 16/02 A3016 RMK A01 T01570021  RH  040%=      5-min Rain = 0
KDO1 171850Z 18003KT 16/02 A3016 RMK A01 T01570021  RH  040%=      5-min Rain = 0
KDO1 171851Z 18002KT 16/02 A3016 RMK A01 T01570021  RH  040%=      5-min Rain = 0
KDO1 171852Z 19003KT 16/02 A3016 RMK A01 T01570021  RH  040%=      5-min Rain = 0
KDO1 171853Z 17001KT 16/02 A3015 RMK A01 T01580021  RH  040%=      5-min Rain = 0
KDO1 171854Z 16001KT 16/02 A3015 RMK A01 T01590022  RH  039%=      5-min Rain = 0
KDO1 171855Z 20003KT 16/02 A3015 RMK A01 T01610023  RH  039%=      5-min Rain = 0
KDO1 171856Z 21004KT 16/03 A3015 RMK A01 T01610025  RH  040%=      5-min Rain = 0
KDO1 171857Z 22003KT 16/02 A3015 RMK A01 T01610020  RH  039%=      5-min Rain = 0
KDO1 171858Z 25002KT 16/02 A3015 RMK A01 T01590020  RH  039%=      5-min Rain = 0
KDO1 171859Z 28000KT 16/02 A3015 RMK A01 T01580017  RH  039%=      5-min Rain = 0
KDO1 171900Z 25001KT 16/02 A3015 RMK A01 T01580019  RH  039%=      5-min Rain = 0
KDO1 171901Z 28002KT 16/02 A3015 RMK A01 T01590017  RH  038%=      5-min Rain = 0
KDO1 171902Z 26002KT 16/02 A3015 RMK A01 T01580015  RH  038%=      5-min Rain = 0
KDO1 171903Z 30002KT 16/02 A3015 RMK A01 T01580015  RH  038%=      5-min Rain = 0
KDO1 171904Z 31003KT 16/02 A3015 RMK A01 T01570015  RH  038%=      5-min Rain = 0
KDO1 171905Z 30003KT 16/02 A3015 RMK A01 T01570016  RH  039%=      5-min Rain = 0
KDO1 171906Z 27002KT 16/02 A3015 RMK A01 T01570015  RH  038%=      5-min Rain = 0
KDO1 171907Z 22000KT 16/02 A3014 RMK A01 T01580017  RH  039%=      5-min Rain = 0
KDO1 171908Z 28001KT 16/02 A3014 RMK A01 T01600018  RH  038%=      5-min Rain = 0
KDO1 171909Z 21001KT 16/02 A3014 RMK A01 T01620019  RH  038%=      5-min Rain = 0
KDO1 171910Z 19001KT 16/01 A3014 RMK A01 T01630013  RH  036%=      5-min Rain = 0
KDO1 171911Z 11002KT 16/02 A3014 RMK A01 T01630016  RH  037%=      5-min Rain = 0
KDO1 171912Z 12001KT 16/02 A3014 RMK A01 T01640018  RH  037%=      5-min Rain = 0
KDO1 171913Z 06001KT 17/02 A3014 RMK A01 T01650016  RH  037%=      5-min Rain = 0
KDO1 171914Z 08004KT 17/02 A3014 RMK A01 T01660015  RH  036%=      5-min Rain = 0
KDO1 171915Z 09003KT 17/02 A3014 RMK A01 T01660017  RH  036%=      5-min Rain = 0
KDO1 171916Z 10002KT 17/02 A3014 RMK A01 T01660016  RH  036%=      5-min Rain = 0
KDO1 171917Z 09004KT 17/01 A3014 RMK A01 T01660014  RH  036%=      5-min Rain = 0
KDO1 171918Z 08003KT 17/01 A3014 RMK A01 T01670014  RH  035%=      5-min Rain = 0
KDO1 171919Z 09003KT 17/01 A3014 RMK A01 T01680013  RH  035%=      5-min Rain = 0
KDO1 171920Z 10003KT 17/01 A3014 RMK A01 T01680010  RH  034%=      5-min Rain = 0
KDO1 171921Z 14004KT 17/01 A3013 RMK A01 T01670012  RH  035%=      5-min Rain = 0
KDO1 171922Z 13005KT 17/02 A3013 RMK A01 T01670015  RH  036%=      5-min Rain = 0
KDO1 171923Z 12004KT 17/01 A3013 RMK A01 T01680012  RH  035%=      5-min Rain = 0
KDO1 171924Z 13003KT 17/02 A3013 RMK A01 T01680015  RH  036%=      5-min Rain = 0
KDO1 171925Z 10003KT 17/01 A3013 RMK A01 T01680011  RH  035%=      5-min Rain = 0
KDO1 171926Z 09003KT 17/01 A3013 RMK A01 T01670011  RH  035%=      5-min Rain = 0
KDO1 171927Z 09002KT 17/01 A3013 RMK A01 T01650012  RH  035%=      5-min Rain = 0
KDO1 171928Z 13002KT 17/01 A3013 RMK A01 T01660014  RH  036%=      5-min Rain = 0
KDO1 171929Z 15003KT 17/02 A3013 RMK A01 T01670015  RH  036%=      5-min Rain = 0
KDO1 171930Z 15004KT 17/02 A3013 RMK A01 T01680015  RH  036%=      5-min Rain = 0
KDO1 171931Z 14004KT 17/02 A3013 RMK A01 T01680016  RH  036%=      5-min Rain = 0
KDO1 171932Z 19002KT 17/02 A3013 RMK A01 T01670015  RH  036%=      5-min Rain = 0
KDO1 171933Z 19002KT 17/02 A3012 RMK A01 T01670018  RH  037%=      5-min Rain = 0
KDO1 171934Z 19001KT 17/02 A3012 RMK A01 T01680016  RH  036%=      5-min Rain = 0
KDO1 171935Z 20002KT 17/02 A3012 RMK A01 T01690016  RH  036%=      5-min Rain = 0
KDO1 171936Z 18003KT 17/02 A3012 RMK A01 T01720018  RH  035%=      5-min Rain = 0
KDO1 171937Z 20002KT 17/01 A3012 RMK A01 T01730014  RH  034%=      5-min Rain = 0
KDO1 171938Z 19002KT 17/02 A3012 RMK A01 T01730015  RH  035%=      5-min Rain = 0
KDO1 171939Z 15003KT 17/02 A3012 RMK A01 T01730017  RH  035%=      5-min Rain = 0
KDO1 171940Z 14005KT 18/02 A3012 RMK A01 T01750017  RH  035%=      5-min Rain = 0
KDO1 171941Z 13006KT 17/02 A3012 RMK A01 T01730015  RH  035%=      5-min Rain = 0
KDO1 171942Z 14005KT 17/02 A3012 RMK A01 T01710016  RH  035%=      5-min Rain = 0
KDO1 171943Z 15004KT 17/02 A3012 RMK A01 T01710016  RH  035%=      5-min Rain = 0
KDO1 171944Z 16003KT 17/02 A3012 RMK A01 T01710015  RH  035%=      5-min Rain = 0
KDO1 171945Z 18002KT 17/01 A3012 RMK A01 T01720014  RH  034%=      5-min Rain = 0
KDO1 171946Z 18005KT 17/01 A3012 RMK A01 T01720013  RH  034%=      5-min Rain = 0
KDO1 171947Z 19005KT 17/01 A3012 RMK A01 T01720011  RH  034%=      5-min Rain = 0
KDO1 171948Z 18004KT 17/01 A3012 RMK A01 T01720012  RH  034%=      5-min Rain = 0
KDO1 171949Z 17003KT 17/01 A3012 RMK A01 T01690011  RH  034%=      5-min Rain = 0
KDO1 171950Z 18001KT 17/01 A3012 RMK A01 T01670013  RH  035%=      5-min Rain = 0
KDO1 171951Z 00000KT 17/01 A3012 RMK A01 T01680013  RH  035%=      5-min Rain = 0
KDO1 171952Z 19001KT 17/01 A3011 RMK A01 T01710012  RH  034%=      5-min Rain = 0
KDO1 171953Z 17004KT 17/01 A3011 RMK A01 T01730013  RH  034%=      5-min Rain = 0
KDO1 171954Z 19004KT 18/01 A3011 RMK A01 T01750013  RH  034%=      5-min Rain = 0
KDO1 171955Z 18003KT 18/01 A3011 RMK A01 T01760012  RH  033%=      5-min Rain = 0
KDO1 171956Z 17003KT 18/01 A3011 RMK A01 T01760007  RH  032%=      5-min Rain = 0
KDO1 171957Z 18003KT 18/01 A3011 RMK A01 T01750008  RH  032%=      5-min Rain = 0
KDO1 171958Z 17004KT 18/01 A3011 RMK A01 T01750007  RH  032%=      5-min Rain = 0
KDO1 171959Z 18004KT 17/00 A3011 RMK A01 T01730004  RH  032%=      5-min Rain = 0
KDO1 172000Z 17004KT 17/01 A3011 RMK A01 T01710005  RH  032%=      5-min Rain = 0
KDO1 172001Z 18004KT 17/01 A3011 RMK A01 T01710006  RH  033%=      5-min Rain = 0
KDO1 172002Z 18003KT 17/00 A3011 RMK A01 T01720004  RH  032%=      5-min Rain = 0
KDO1 172003Z 21003KT 17/00 A3011 RMK A01 T01720004  RH  032%=      5-min Rain = 0
KDO1 172004Z 22003KT 17/00 A3011 RMK A01 T01720002  RH  031%=      5-min Rain = 0
KDO1 172005Z 19003KT 17/01 A3011 RMK A01 T01730005  RH  032%=      5-min Rain = 0
KDO1 172006Z 19002KT 17/00 A3011 RMK A01 T01740002  RH  031%=      5-min Rain = 0
KDO1 172007Z 19003KT 17/00 A3011 RMK A01 T01740002  RH  031%=      5-min Rain = 0
KDO1 172008Z 19003KT 17/00 A3011 RMK A01 T01730002  RH  031%=      5-min Rain = 0
KDO1 172009Z 19003KT 17/00 A3011 RMK A01 T01730000  RH  031%=      5-min Rain = 0
KDO1 172010Z 20003KT 17/00 A3011 RMK A01 T01730002  RH  031%=      5-min Rain = 0
KDO1 172011Z 18002KT 17/00 A3011 RMK A01 T01730004  RH  032%=      5-min Rain = 0
KDO1 172012Z 16003KT 17/01 A3011 RMK A01 T01740006  RH  032%=      5-min Rain = 0
KDO1 172013Z 17003KT 18/01 A3011 RMK A01 T01750005  RH  032%=      5-min Rain = 0
KDO1 172014Z 19002KT 18/01 A3011 RMK A01 T01750006  RH  032%=      5-min Rain = 0
KDO1 172015Z 14004KT 17/01 A3011 RMK A01 T01740007  RH  032%=      5-min Rain = 0
KDO1 172016Z 13007KT 17/01 A3011 RMK A01 T01740010  RH  033%=      5-min Rain = 0
KDO1 172017Z 14003KT 17/01 A3011 RMK A01 T01730009  RH  033%=      5-min Rain = 0
KDO1 172018Z 14005KT 17/01 A3011 RMK A01 T01710009  RH  033%=      5-min Rain = 0
KDO1 172019Z 14006KT 17/01 A301 RMK A01 T01710009  RH  033%=      5-min Rain = 0
KDO1 172020Z 15006KT 17/01 A301 RMK A01 T01720010  RH  034%=      5-min Rain = 0
KDO1 172021Z 15007KT 17/01 A301 RMK A01 T01720009  RH  033%=      5-min Rain = 0
KDO1 172022Z 14007KT 17/01 A301 RMK A01 T01720011  RH  034%=      5-min Rain = 0
KDO1 172023Z 13006KT 18/01 A301 RMK A01 T01750012  RH  033%=      5-min Rain = 0
KDO1 172024Z 14005KT 18/01 A301 RMK A01 T01750010  RH  033%=      5-min Rain = 0
KDO1 172025Z 13005KT 18/01 A301 RMK A01 T01750009  RH  033%=      5-min Rain = 0
KDO1 172026Z 12006KT 18/01 A301 RMK A01 T01750010  RH  033%=      5-min Rain = 0
KDO1 172027Z 13006KT 18/01 A301 RMK A01 T01760010  RH  033%=      5-min Rain = 0
KDO1 172028Z 13005KT 18/01 A301 RMK A01 T01760011  RH  033%=      5-min Rain = 0
KDO1 172029Z 15005KT 18/01 A301 RMK A01 T01760013  RH  033%=      5-min Rain = 0
KDO1 172030Z 15007KT 18/01 A301 RMK A01 T01780012  RH  033%=      5-min Rain = 0
KDO1 172031Z 15007KT 18/01 A301 RMK A01 T01790008  RH  032%=      5-min Rain = 0
KDO1 172032Z 14004KT 18/01 A301 RMK A01 T01780005  RH  031%=      5-min Rain = 0
KDO1 172033Z 11004KT 18/00 A301 RMK A01 T01760004  RH  031%=      5-min Rain = 0
KDO1 172034Z 09004KT 18/01 A301 RMK A01 T01750007  RH  032%=      5-min Rain = 0
KDO1 172035Z 10004KT 18/01 A301 RMK A01 T01750007  RH  032%=      5-min Rain = 0
KDO1 172036Z 13006KT 18/01 A301 RMK A01 T01760009  RH  033%=      5-min Rain = 0
KDO1 172037Z 13006KT 18/01 A301 RMK A01 T01780009  RH  032%=      5-min Rain = 0
KDO1 172038Z 13006KT 18/01 A301 RMK A01 T01790007  RH  031%=      5-min Rain = 0
KDO1 172039Z 11005KT 18/01 A3009 RMK A01 T01790007  RH  031%=      5-min Rain = 0
KDO1 172040Z 09005KT 18/01 A3009 RMK A01 T01790007  RH  031%=      5-min Rain = 0
KDO1 172041Z 11002KT 18/00 A3009 RMK A01 T01790003  RH  030%=      5-min Rain = 0
KDO1 172042Z 15004KT 18/01 A3009 RMK A01 T01780006  RH  031%=      5-min Rain = 0
KDO1 172043Z 16006KT 18/00 A3009 RMK A01 T01790003  RH  030%=      5-min Rain = 0
KDO1 172044Z 16006KT 18/00 A3009 RMK A01 T018000-0  RH  030%=      5-min Rain = 0
KDO1 172045Z 19005KT 18/00 A3009 RMK A01 T01800000  RH  030%=      5-min Rain = 0
KDO1 172046Z 15007KT 18/00 A3009 RMK A01 T01790004  RH  031%=      5-min Rain = 0
KDO1 172047Z 12006KT 18/00 A3009 RMK A01 T01790004  RH  031%=      5-min Rain = 0
KDO1 172048Z 16006KT 18/00 A3009 RMK A01 T01790001  RH  030%=      5-min Rain = 0
KDO1 172049Z 16004KT 18/M00 A3009 RMK A01 T01791002  RH  029%=      5-min Rain = 0
KDO1 172050Z 17002KT 18/M01 A3009 RMK A01 T01791005  RH  029%=      5-min Rain = 0
KDO1 172051Z 17002KT 18/M01 A3009 RMK A01 T01781005  RH  029%=      5-min Rain = 0
KDO1 172052Z 18004KT 18/M00 A3009 RMK A01 T01791001  RH  030%=      5-min Rain = 0
KDO1 172053Z 17007KT 18/00 A3009 RMK A01 T01810004  RH  030%=      5-min Rain = 0
KDO1 172054Z 17006KT 18/00 A3009 RMK A01 T01810003  RH  030%=      5-min Rain = 0
KDO1 172055Z 15005KT 18/00 A3009 RMK A01 T01810001  RH  030%=      5-min Rain = 0
KDO1 172056Z 16005KT 18/00 A3009 RMK A01 T01800001  RH  030%=      5-min Rain = 0
KDO1 172057Z 18005KT 18/00 A3009 RMK A01 T01800000  RH  030%=      5-min Rain = 0
KDO1 172058Z 17005KT 18/00 A3009 RMK A01 T01800002  RH  030%=      5-min Rain = 0
KDO1 172059Z 16004KT 18/00 A3009 RMK A01 T018100-0  RH  029%=      5-min Rain = 0
KDO1 172100Z 15002KT 18/00 A3009 RMK A01 T01810001  RH  030%=      5-min Rain = 0
KDO1 172101Z 17003KT 18/M00 A3009 RMK A01 T01811001  RH  029%=      5-min Rain = 0
KDO1 172102Z 15006KT 18/M00 A3009 RMK A01 T01811001  RH  029%=      5-min Rain = 0
KDO1 172103Z 16005KT 18/M00 A3009 RMK A01 T01801001  RH  029%=      5-min Rain = 0
KDO1 172104Z 16006KT 18/M00 A3009 RMK A01 T01791001  RH  030%=      5-min Rain = 0
KDO1 172105Z 18006KT 18/00 A3009 RMK A01 T01780000  RH  030%=      5-min Rain = 0
KDO1 172106Z 18006KT 18/00 A3009 RMK A01 T01780001  RH  030%=      5-min Rain = 0
KDO1 172107Z 17005KT 18/00 A3009 RMK A01 T01780000  RH  030%=      5-min Rain = 0
KDO1 172108Z 16004KT 18/M00 A3009 RMK A01 T01781002  RH  030%=      5-min Rain = 0
KDO1 172109Z 15001KT 18/M00 A3009 RMK A01 T01781002  RH  030%=      5-min Rain = 0
KDO1 172110Z 14002KT 18/00 A3009 RMK A01 T017800-0  RH  030%=      5-min Rain = 0
KDO1 172111Z 16007KT 18/00 A3009 RMK A01 T01790001  RH  030%=      5-min Rain = 0
KDO1 172112Z 17008KT 18/00 A3009 RMK A01 T01810002  RH  030%=      5-min Rain = 0
KDO1 172113Z 17006KT 18/00 A3009 RMK A01 T018000-0  RH  030%=      5-min Rain = 0
KDO1 172114Z 15005KT 18/00 A3009 RMK A01 T01780000  RH  030%=      5-min Rain = 0
KDO1 172115Z 16005KT 18/00 A3009 RMK A01 T01780001  RH  030%=      5-min Rain = 0
KDO1 172116Z 15007KT 18/00 A3009 RMK A01 T01790002  RH  030%=      5-min Rain = 0
KDO1 172117Z 14007KT 18/00 A3009 RMK A01 T01800000  RH  030%=      5-min Rain = 0
KDO1 172118Z 14005KT 18/00 A3009 RMK A01 T01790001  RH  030%=      5-min Rain = 0
KDO1 172119Z 13005KT 18/00 A3008 RMK A01 T01790001  RH  030%=      5-min Rain = 0
KDO1 172120Z 15003KT 18/00 A3008 RMK A01 T01790003  RH  030%=      5-min Rain = 0
KDO1 172121Z 14004KT 18/00 A3009 RMK A01 T01800002  RH  030%=      5-min Rain = 0
KDO1 172122Z 15006KT 18/01 A3008 RMK A01 T01820006  RH  031%=      5-min Rain = 0
KDO1 172123Z 13007KT 18/01 A3008 RMK A01 T01810011  RH  032%=      5-min Rain = 0
KDO1 172124Z 12009KT 18/01 A3008 RMK A01 T01810014  RH  033%=      5-min Rain = 0
KDO1 172125Z 12010KT 18/01 A3008 RMK A01 T01800013  RH  033%=      5-min Rain = 0
KDO1 172126Z 14009KT 18/01 A3008 RMK A01 T01790014  RH  033%=      5-min Rain = 0
KDO1 172127Z 15007KT 18/01 A3008 RMK A01 T01790014  RH  033%=      5-min Rain = 0
KDO1 172128Z 16006KT 18/01 A3008 RMK A01 T01800011  RH  032%=      5-min Rain = 0
KDO1 172129Z 17006KT 18/01 A3008 RMK A01 T01810011  RH  032%=      5-min Rain = 0
KDO1 172130Z 16007KT 18/01 A3008 RMK A01 T01820013  RH  032%=      5-min Rain = 0
KDO1 172131Z 15008KT 18/01 A3008 RMK A01 T01810014  RH  033%=      5-min Rain = 0
KDO1 172132Z 16007G13KT 18/02 A3008 RMK A01 T01800016  RH  033%=      5-min Rain = 0
KDO1 172133Z 17007KT 18/01 A3008 RMK A01 T01810012  RH  032%=      5-min Rain = 0
KDO1 172134Z 17008KT 18/01 A3008 RMK A01 T01820011  RH  032%=      5-min Rain = 0
KDO1 172135Z 15006KT 18/01 A3008 RMK A01 T01810012  RH  032%=      5-min Rain = 0
KDO1 172136Z 14006KT 18/01 A3008 RMK A01 T01800014  RH  033%=      5-min Rain = 0
KDO1 172137Z 14007KT 18/01 A3008 RMK A01 T01800014  RH  033%=      5-min Rain = 0
KDO1 172138Z 15007KT 18/01 A3008 RMK A01 T01800013  RH  033%=      5-min Rain = 0
KDO1 172139Z 15007KT 18/01 A3008 RMK A01 T01800014  RH  033%=      5-min Rain = 0
KDO1 172140Z 17006KT 18/01 A3008 RMK A01 T01800011  RH  032%=      5-min Rain = 0
KDO1 172141Z 16007KT 18/01 A3008 RMK A01 T01790011  RH  032%=      5-min Rain = 0
KDO1 172142Z 15006KT 18/01 A3008 RMK A01 T01790011  RH  032%=      5-min Rain = 0
KDO1 172143Z 14007KT 18/01 A3008 RMK A01 T01790011  RH  032%=      5-min Rain = 0
KDO1 172144Z 14007KT 18/01 A3008 RMK A01 T01790012  RH  033%=      5-min Rain = 0
KDO1 172145Z 15010KT 18/01 A3007 RMK A01 T01780012  RH  033%=      5-min Rain = 0
KDO1 172146Z 15010KT 18/01 A3007 RMK A01 T01770010  RH  032%=      5-min Rain = 0
KDO1 172147Z 14009KT 18/01 A3007 RMK A01 T01760010  RH  032%=      5-min Rain = 0
KDO1 172148Z 14008KT 18/01 A3007 RMK A01 T01760010  RH  033%=      5-min Rain = 0
KDO1 172149Z 15006KT 18/01 A3007 RMK A01 T01760011  RH  033%=      5-min Rain = 0
KDO1 172150Z 14008KT 18/01 A3007 RMK A01 T01770012  RH  033%=      5-min Rain = 0
KDO1 172151Z 13009KT 18/01 A3007 RMK A01 T01780012  RH  033%=      5-min Rain = 0
KDO1 172152Z 14009KT 18/01 A3007 RMK A01 T01770011  RH  033%=      5-min Rain = 0
KDO1 172153Z 14009KT 18/01 A3007 RMK A01 T01770012  RH  033%=      5-min Rain = 0
KDO1 172154Z 15009KT 18/01 A3007 RMK A01 T01760011  RH  033%=      5-min Rain = 0
KDO1 172155Z 15010KT 18/01 A3007 RMK A01 T01750010  RH  033%=      5-min Rain = 0
KDO1 172156Z 15008KT 17/01 A3007 RMK A01 T01740010  RH  033%=      5-min Rain = 0
KDO1 172157Z 14007KT 17/01 A3007 RMK A01 T01740011  RH  033%=      5-min Rain = 0
KDO1 172158Z 13006KT 18/01 A3007 RMK A01 T01750012  RH  033%=      5-min Rain = 0
KDO1 172159Z 15010KT 18/01 A3007 RMK A01 T01750011  RH  033%=      5-min Rain = 0
KDO1 172200Z 14009KT 18/01 A3007 RMK A01 T01760011  RH  033%=      5-min Rain = 0
KDO1 172201Z 13008KT 18/01 A3007 RMK A01 T01750010  RH  033%=      5-min Rain = 0
KDO1 172202Z 13009KT 18/01 A3007 RMK A01 T01750010  RH  033%=      5-min Rain = 0
KDO1 172203Z 13009KT 17/01 A3007 RMK A01 T01740008  RH  032%=      5-min Rain = 0
KDO1 172204Z 13009KT 17/01 A3007 RMK A01 T01740008  RH  033%=      5-min Rain = 0
KDO1 172205Z 12007KT 17/01 A3007 RMK A01 T01730007  RH  033%=      5-min Rain = 0
KDO1 172206Z 13008KT 17/01 A3007 RMK A01 T01730008  RH  033%=      5-min Rain = 0
KDO1 172207Z 12009KT 17/01 A3007 RMK A01 T01730009  RH  033%=      5-min Rain = 0
KDO1 172208Z 12009KT 17/01 A3007 RMK A01 T01730009  RH  033%=      5-min Rain = 0
KDO1 172209Z 15009KT 17/01 A3007 RMK A01 T01730009  RH  033%=      5-min Rain = 0
KDO1 172210Z 14009KT 17/01 A3007 RMK A01 T01730010  RH  033%=      5-min Rain = 0
KDO1 172211Z 15009KT 17/01 A3007 RMK A01 T01730007  RH  033%=      5-min Rain = 0
KDO1 172212Z 14008KT 17/01 A3007 RMK A01 T01720008  RH  033%=      5-min Rain = 0
KDO1 172213Z 14008KT 17/01 A3007 RMK A01 T01720007  RH  033%=      5-min Rain = 0
KDO1 172214Z 14008KT 17/01 A3007 RMK A01 T01720007  RH  033%=      5-min Rain = 0
KDO1 172215Z 13010KT 17/01 A3007 RMK A01 T01720007  RH  033%=      5-min Rain = 0
KDO1 172216Z 14008KT 17/01 A3007 RMK A01 T01730005  RH  032%=      5-min Rain = 0
KDO1 172217Z 14009KT 17/01 A3007 RMK A01 T01720005  RH  032%=      5-min Rain = 0
KDO1 172218Z 14009KT 17/01 A3007 RMK A01 T01710005  RH  032%=      5-min Rain = 0
KDO1 172219Z 14008KT 17/01 A3007 RMK A01 T01710005  RH  032%=      5-min Rain = 0
KDO1 172220Z 14008KT 17/01 A3007 RMK A01 T01710006  RH  033%=      5-min Rain = 0
KDO1 172221Z 15008KT 17/00 A3007 RMK A01 T01720004  RH  032%=      5-min Rain = 0
KDO1 172222Z 15009KT 17/00 A3007 RMK A01 T01720004  RH  032%=      5-min Rain = 0
KDO1 172223Z 14010KT 17/00 A3007 RMK A01 T01720003  RH  032%=      5-min Rain = 0
KDO1 172224Z 15009KT 17/00 A3007 RMK A01 T01710003  RH  032%=      5-min Rain = 0
KDO1 172225Z 13007KT 17/00 A3007 RMK A01 T01700004  RH  032%=      5-min Rain = 0
KDO1 172226Z 14010KT 17/00 A3007 RMK A01 T01710003  RH  032%=      5-min Rain = 0
KDO1 172227Z 14009KT 17/00 A3007 RMK A01 T01700001  RH  032%=      5-min Rain = 0
KDO1 172228Z 16007KT 17/00 A3007 RMK A01 T01700003  RH  032%=      5-min Rain = 0
KDO1 172229Z 15008KT 17/00 A3007 RMK A01 T01700004  RH  032%=      5-min Rain = 0
KDO1 172230Z 15008KT 17/00 A3007 RMK A01 T01700004  RH  032%=      5-min Rain = 0
KDO1 172231Z 14009KT 17/00 A3007 RMK A01 T01700004  RH  032%=      5-min Rain = 0
KDO1 172232Z 14009KT 17/00 A3007 RMK A01 T01700004  RH  032%=      5-min Rain = 0
KDO1 172233Z 14010KT 17/00 A3007 RMK A01 T01700004  RH  033%=      5-min Rain = 0
KDO1 172234Z 14009KT 17/00 A3007 RMK A01 T01690003  RH  032%=      5-min Rain = 0
KDO1 172235Z 14009KT 17/00 A3007 RMK A01 T01680003  RH  033%=      5-min Rain = 0
KDO1 172236Z 14008KT 17/00 A3007 RMK A01 T01680003  RH  033%=      5-min Rain = 0
KDO1 172237Z 14009KT 17/01 A3007 RMK A01 T01680005  RH  033%=      5-min Rain = 0
KDO1 172238Z 15009KT 17/01 A3007 RMK A01 T01680005  RH  033%=      5-min Rain = 0
KDO1 172239Z 16010KT 17/01 A3007 RMK A01 T01680005  RH  033%=      5-min Rain = 0
KDO1 172240Z 14008KT 17/00 A3007 RMK A01 T01680004  RH  033%=      5-min Rain = 0
KDO1 172241Z 14008KT 17/01 A3007 RMK A01 T01680005  RH  033%=      5-min Rain = 0
KDO1 172242Z 13007KT 17/01 A3007 RMK A01 T01680005  RH  033%=      5-min Rain = 0
KDO1 172243Z 14009KT 17/01 A3007 RMK A01 T01680005  RH  033%=      5-min Rain = 0
KDO1 172244Z 15009KT 17/00 A3007 RMK A01 T01670004  RH  033%=      5-min Rain = 0
KDO1 172245Z 14008KT 17/00 A3007 RMK A01 T01670004  RH  033%=      5-min Rain = 0
KDO1 172246Z 14009KT 17/00 A3007 RMK A01 T01660004  RH  033%=      5-min Rain = 0
KDO1 172247Z 14010KT 17/00 A3007 RMK A01 T01660002  RH  033%=      5-min Rain = 0
KDO1 172248Z 14010KT 17/00 A3007 RMK A01 T01660002  RH  033%=      5-min Rain = 0
KDO1 172249Z 14010KT 17/00 A3007 RMK A01 T01650002  RH  033%=      5-min Rain = 0
KDO1 172250Z 14009KT 17/00 A3007 RMK A01 T01650003  RH  033%=      5-min Rain = 0
KDO1 172251Z 14009KT 17/00 A3007 RMK A01 T01650004  RH  034%=      5-min Rain = 0
KDO1 172252Z 14008KT 16/01 A3007 RMK A01 T01640005  RH  034%=      5-min Rain = 0
KDO1 172253Z 13010KT 16/01 A3007 RMK A01 T01640006  RH  034%=      5-min Rain = 0
KDO1 172254Z 14007KT 16/01 A3007 RMK A01 T01640006  RH  034%=      5-min Rain = 0
KDO1 172255Z 14008KT 16/01 A3007 RMK A01 T01640007  RH  034%=      5-min Rain = 0
KDO1 172256Z 15009KT 16/01 A3007 RMK A01 T01640008  RH  035%=      5-min Rain = 0
KDO1 172257Z 15010KT 16/01 A3007 RMK A01 T01640008  RH  035%=      5-min Rain = 0
KDO1 172258Z 15009KT 16/01 A3007 RMK A01 T01630008  RH  035%=      5-min Rain = 0
KDO1 172259Z 14009KT 16/01 A3007 RMK A01 T01630007  RH  035%=      5-min Rain = 0
KDO1 172300Z 14010KT 16/01 A3007 RMK A01 T01620007  RH  035%=      5-min Rain = 0
KDO1 172301Z 14011KT 16/01 A3007 RMK A01 T01620007  RH  035%=      5-min Rain = 0
KDO1 172302Z 14010KT 16/01 A3007 RMK A01 T01610008  RH  035%=      5-min Rain = 0
KDO1 172303Z 14009KT 16/01 A3007 RMK A01 T01610009  RH  036%=      5-min Rain = 0
KDO1 172304Z 14009KT 16/01 A3007 RMK A01 T01600009  RH  036%=      5-min Rain = 0
KDO1 172305Z 14008KT 16/01 A3007 RMK A01 T01600010  RH  036%=      5-min Rain = 0
KDO1 172306Z 14009KT 16/01 A3007 RMK A01 T01600011  RH  036%=      5-min Rain = 0
KDO1 172307Z 14009KT 16/01 A3007 RMK A01 T01590012  RH  037%=      5-min Rain = 0
KDO1 172308Z 15008KT 16/01 A3007 RMK A01 T01590013  RH  037%=      5-min Rain = 0
KDO1 172309Z 16007KT 16/01 A3007 RMK A01 T01590014  RH  037%=      5-min Rain = 0
KDO1 172310Z 15009KT 16/01 A3007 RMK A01 T01580014  RH  038%=      5-min Rain = 0
KDO1 172311Z 15008KT 16/01 A3007 RMK A01 T01580014  RH  038%=      5-min Rain = 0
KDO1 172312Z 15008KT 16/01 A3007 RMK A01 T01570014  RH  038%=      5-min Rain = 0
KDO1 172313Z 15010KT 16/01 A3007 RMK A01 T01570014  RH  038%=      5-min Rain = 0
KDO1 172314Z 15010KT 16/01 A3007 RMK A01 T01560014  RH  038%=      5-min Rain = 0
KDO1 172315Z 15009KT 16/02 A3007 RMK A01 T01560015  RH  038%=      5-min Rain = 0
KDO1 172316Z 15009KT 16/02 A3007 RMK A01 T01550015  RH  039%=      5-min Rain = 0
KDO1 172317Z 15011KT 15/02 A3007 RMK A01 T01540016  RH  039%=      5-min Rain = 0
KDO1 172318Z 15010KT 15/02 A3007 RMK A01 T01540015  RH  039%=      5-min Rain = 0
KDO1 172319Z 15009KT 15/02 A3007 RMK A01 T01530015  RH  039%=      5-min Rain = 0
KDO1 172320Z 15010KT 15/01 A3007 RMK A01 T01530014  RH  039%=      5-min Rain = 0
KDO1 172321Z 14010KT 15/01 A3007 RMK A01 T01520013  RH  039%=      5-min Rain = 0
KDO1 172322Z 15008KT 15/01 A3007 RMK A01 T01520012  RH  039%=      5-min Rain = 0
KDO1 172323Z 15009KT 15/01 A3007 RMK A01 T01510013  RH  039%=      5-min Rain = 0
KDO1 172324Z 14010KT 15/01 A3007 RMK A01 T01500012  RH  039%=      5-min Rain = 0
KDO1 172325Z 14008KT 15/01 A3007 RMK A01 T01500012  RH  039%=      5-min Rain = 0
KDO1 172326Z 14007KT 15/01 A3007 RMK A01 T01490012  RH  039%=      5-min Rain = 0
KDO1 172327Z 14009KT 15/01 A3007 RMK A01 T01490012  RH  039%=      5-min Rain = 0
KDO1 172328Z 14008KT 15/01 A3007 RMK A01 T01480012  RH  040%=      5-min Rain = 0
KDO1 172329Z 14009KT 15/01 A3007 RMK A01 T01470012  RH  040%=      5-min Rain = 0
KDO1 172330Z 14009KT 15/01 A3006 RMK A01 T01470013  RH  040%=      5-min Rain = 0
KDO1 172331Z 14008KT 15/01 A3006 RMK A01 T01460013  RH  040%=      5-min Rain = 0
KDO1 172332Z 14007KT 15/01 A3006 RMK A01 T01450013  RH  041%=      5-min Rain = 0
KDO1 172333Z 14008KT 14/01 A3006 RMK A01 T01440013  RH  041%=      5-min Rain = 0
KDO1 172334Z 14009KT 14/01 A3006 RMK A01 T01430013  RH  041%=      5-min Rain = 0
KDO1 172335Z 14007KT 14/01 A3006 RMK A01 T01430012  RH  041%=      5-min Rain = 0
KDO1 172336Z 14007KT 14/01 A3006 RMK A01 T01430013  RH  041%=      5-min Rain = 0
KDO1 172337Z 14008KT 14/01 A3006 RMK A01 T01420013  RH  041%=      5-min Rain = 0
KDO1 172338Z 14009KT 14/01 A3006 RMK A01 T01410013  RH  042%=      5-min Rain = 0
KDO1 172339Z 14008KT 14/01 A3006 RMK A01 T01410013  RH  042%=      5-min Rain = 0
KDO1 172340Z 14008KT 14/01 A3006 RMK A01 T01400014  RH  042%=      5-min Rain = 0
KDO1 172341Z 14008KT 14/01 A3006 RMK A01 T01400014  RH  043%=      5-min Rain = 0
KDO1 172342Z 15008KT 14/02 A3006 RMK A01 T01390015  RH  043%=      5-min Rain = 0
KDO1 172343Z 15008KT 14/02 A3006 RMK A01 T01380016  RH  043%=      5-min Rain = 0
KDO1 172344Z 15009KT 14/02 A3006 RMK A01 T01370016  RH  044%=      5-min Rain = 0
KDO1 172345Z 15008KT 14/02 A3006 RMK A01 T01370017  RH  044%=      5-min Rain = 0
KDO1 172346Z 15009KT 14/02 A3006 RMK A01 T01370018  RH  044%=      5-min Rain = 0
KDO1 172347Z 15008KT 14/02 A3006 RMK A01 T01360018  RH  045%=      5-min Rain = 0
KDO1 172348Z 15008KT 14/02 A3006 RMK A01 T01350019  RH  045%=      5-min Rain = 0
KDO1 172349Z 15008KT 14/02 A3006 RMK A01 T01350019  RH  045%=      5-min Rain = 0
KDO1 172350Z 15008KT 13/02 A3006 RMK A01 T01340019  RH  046%=      5-min Rain = 0
KDO1 172351Z 15008KT 13/02 A3006 RMK A01 T01330020  RH  046%=      5-min Rain = 0
KDO1 172352Z 15008KT 13/02 A3006 RMK A01 T01330020  RH  046%=      5-min Rain = 0
KDO1 172353Z 15008KT 13/02 A3006 RMK A01 T01320021  RH  047%=      5-min Rain = 0
KDO1 172354Z 14008KT 13/02 A3006 RMK A01 T01300021  RH  047%=      5-min Rain = 0
KDO1 172355Z 14008KT 13/02 A3006 RMK A01 T01290021  RH  048%=      5-min Rain = 0
KDO1 172356Z 14007KT 13/02 A3006 RMK A01 T01280021  RH  048%=      5-min Rain = 0
KDO1 172357Z 14008KT 13/02 A3006 RMK A01 T01280021  RH  048%=      5-min Rain = 0
KDO1 172358Z 14008KT 13/02 A3006 RMK A01 T01270022  RH  049%=      5-min Rain = 0
KDO1 172359Z 14008KT 13/02 A3006 RMK A01 T01270022  RH  049%=      5-min Rain = 0
KDO1 180000Z 14007KT 13/02 A3006 RMK A01 T01260022  RH  049%=      5-min Rain = 0
KDO1 180001Z 14007KT 13/02 A3006 RMK A01 T01260022  RH  049%=      5-min Rain = 0
KDO1 180002Z 14007KT 13/02 A3006 RMK A01 T01250022  RH  049%=      5-min Rain = 0
KDO1 180003Z 14007KT 12/02 A3006 RMK A01 T01240023  RH  050%=      5-min Rain = 0
KDO1 180004Z 14007KT 12/02 A3006 RMK A01 T01230023  RH  050%=      5-min Rain = 0
KDO1 180005Z 14007KT 12/02 A3006 RMK A01 T01220023  RH  051%=      5-min Rain = 0
KDO1 180006Z 14007KT 12/02 A3006 RMK A01 T01210023  RH  051%=      5-min Rain = 0
KDO1 180007Z 14007KT 12/02 A3006 RMK A01 T01210023  RH  051%=      5-min Rain = 0
KDO1 180008Z 14007KT 12/02 A3006 RMK A01 T01210023  RH  051%=      5-min Rain = 0
KDO1 180009Z 14008KT 12/02 A3006 RMK A01 T01200023  RH  051%=      5-min Rain = 0
KDO1 180010Z 14008KT 12/02 A3006 RMK A01 T01190023  RH  052%=      5-min Rain = 0
KDO1 180011Z 14007KT 12/02 A3006 RMK A01 T01190023  RH  052%=      5-min Rain = 0
KDO1 180012Z 14007KT 12/02 A3006 RMK A01 T01180023  RH  052%=      5-min Rain = 0
KDO1 180013Z 14007KT 12/02 A3006 RMK A01 T01180023  RH  052%=      5-min Rain = 0
KDO1 180014Z 14007KT 12/02 A3006 RMK A01 T01170023  RH  052%=      5-min Rain = 0
KDO1 180015Z 14007KT 12/02 A3006 RMK A01 T01160023  RH  053%=      5-min Rain = 0
KDO1 180016Z 14007KT 12/02 A3006 RMK A01 T01160023  RH  053%=      5-min Rain = 0
KDO1 180017Z 14007KT 12/02 A3006 RMK A01 T01150023  RH  053%=      5-min Rain = 0
KDO1 180018Z 14007KT 11/02 A3006 RMK A01 T01140023  RH  053%=      5-min Rain = 0
KDO1 180019Z 14007KT 11/02 A3006 RMK A01 T01130022  RH  053%=      5-min Rain = 0
KDO1 180020Z 14006KT 11/02 A3006 RMK A01 T01120022  RH  054%=      5-min Rain = 0
KDO1 180021Z 14007KT 11/02 A3006 RMK A01 T01110022  RH  054%=      5-min Rain = 0
KDO1 180022Z 14007KT 11/02 A3006 RMK A01 T01100022  RH  054%=      5-min Rain = 0
KDO1 180023Z 14007KT 11/02 A3007 RMK A01 T01100022  RH  055%=      5-min Rain = 0
KDO1 180024Z 14006KT 11/02 A3007 RMK A01 T01090022  RH  055%=      5-min Rain = 0
KDO1 180025Z 14006KT 11/02 A3007 RMK A01 T01080022  RH  055%=      5-min Rain = 0
KDO1 180026Z 14006KT 11/02 A3007 RMK A01 T01080022  RH  055%=      5-min Rain = 0
KDO1 180027Z 13006KT 11/02 A3007 RMK A01 T01070022  RH  056%=      5-min Rain = 0
KDO1 180028Z 13006KT 11/02 A3007 RMK A01 T01060022  RH  056%=      5-min Rain = 0
KDO1 180029Z 14006KT 11/02 A3007 RMK A01 T01050021  RH  056%=      5-min Rain = 0
KDO1 180030Z 13006KT 11/02 A3007 RMK A01 T01050022  RH  056%=      5-min Rain = 0
KDO1 180031Z 13006KT 10/02 A3007 RMK A01 T01040021  RH  057%=      5-min Rain = 0
KDO1 180032Z 13006KT 10/02 A3007 RMK A01 T01040022  RH  057%=      5-min Rain = 0
KDO1 180033Z 13006KT 10/02 A3007 RMK A01 T01030022  RH  057%=      5-min Rain = 0
KDO1 180034Z 14006KT 10/02 A3007 RMK A01 T01030021  RH  057%=      5-min Rain = 0
KDO1 180035Z 14005KT 10/02 A3007 RMK A01 T01020021  RH  057%=      5-min Rain = 0
KDO1 180036Z 13005KT 10/02 A3007 RMK A01 T01020021  RH  057%=      5-min Rain = 0
KDO1 180037Z 13005KT 10/02 A3007 RMK A01 T01010021  RH  058%=      5-min Rain = 0
KDO1 180038Z 13005KT 10/02 A3007 RMK A01 T01010022  RH  058%=      5-min Rain = 0
KDO1 180039Z 13005KT 10/02 A3007 RMK A01 T01000021  RH  058%=      5-min Rain = 0
KDO1 180040Z 13005KT 10/02 A3007 RMK A01 T00990021  RH  058%=      5-min Rain = 0
KDO1 180041Z 13004KT 10/02 A3007 RMK A01 T00990021  RH  058%=      5-min Rain = 0
KDO1 180042Z 13004KT 10/02 A3007 RMK A01 T00990021  RH  058%=      5-min Rain = 0
KDO1 180043Z 13004KT 10/02 A3007 RMK A01 T00980021  RH  059%=      5-min Rain = 0
KDO1 180044Z 12004KT 10/02 A3007 RMK A01 T00980021  RH  059%=      5-min Rain = 0
KDO1 180045Z 13004KT 10/02 A3007 RMK A01 T00970021  RH  059%=      5-min Rain = 0
KDO1 180046Z 13004KT 10/02 A3007 RMK A01 T00970020  RH  059%=      5-min Rain = 0
KDO1 180047Z 13004KT 10/02 A3007 RMK A01 T00960021  RH  059%=      5-min Rain = 0
KDO1 180048Z 13004KT 10/02 A3006 RMK A01 T00960021  RH  059%=      5-min Rain = 0
KDO1 180049Z 13004KT 10/02 A3006 RMK A01 T00960021  RH  060%=      5-min Rain = 0
KDO1 180050Z 13004KT 10/02 A3006 RMK A01 T00950021  RH  060%=      5-min Rain = 0
KDO1 180051Z 13004KT 09/02 A3007 RMK A01 T00940021  RH  060%=      5-min Rain = 0
KDO1 180052Z 13004KT 09/02 A3007 RMK A01 T00940021  RH  060%=      5-min Rain = 0
KDO1 180053Z 13004KT 09/02 A3007 RMK A01 T00930021  RH  061%=      5-min Rain = 0
KDO1 180054Z 13004KT 09/02 A3007 RMK A01 T00930021  RH  061%=      5-min Rain = 0
KDO1 180055Z 13004KT 09/02 A3007 RMK A01 T00930022  RH  061%=      5-min Rain = 0
KDO1 180056Z 14004KT 09/02 A3007 RMK A01 T00920022  RH  061%=      5-min Rain = 0
KDO1 180057Z 14004KT 09/02 A3007 RMK A01 T00920022  RH  061%=      5-min Rain = 0
KDO1 180058Z 14004KT 09/02 A3007 RMK A01 T00920022  RH  062%=      5-min Rain = 0
KDO1 180059Z 14004KT 09/02 A3007 RMK A01 T00920022  RH  062%=      5-min Rain = 0
KDO1 180100Z 14004KT 09/02 A3007 RMK A01 T00920022  RH  062%=      5-min Rain = 0
KDO1 180101Z 14004KT 09/02 A3007 RMK A01 T00920023  RH  062%=      5-min Rain = 0
KDO1 180102Z 14005KT 09/02 A3007 RMK A01 T00920023  RH  062%=      5-min Rain = 0
KDO1 180103Z 14005KT 09/02 A3007 RMK A01 T00920023  RH  062%=      5-min Rain = 0
KDO1 180104Z 14005KT 09/02 A3007 RMK A01 T00910023  RH  062%=      5-min Rain = 0
KDO1 180105Z 14005KT 09/02 A3007 RMK A01 T00900023  RH  063%=      5-min Rain = 0
KDO1 180106Z 14005KT 09/02 A3007 RMK A01 T00900023  RH  063%=      5-min Rain = 0
KDO1 180107Z 14005KT 09/02 A3007 RMK A01 T00900023  RH  063%=      5-min Rain = 0
KDO1 180108Z 14005KT 09/02 A3007 RMK A01 T00900024  RH  063%=      5-min Rain = 0
KDO1 180109Z 14005KT 09/02 A3007 RMK A01 T00890023  RH  063%=      5-min Rain = 0
KDO1 180110Z 14005KT 09/02 A3007 RMK A01 T00890023  RH  064%=      5-min Rain = 0
KDO1 180111Z 14005KT 09/02 A3007 RMK A01 T00880023  RH  064%=      5-min Rain = 0
KDO1 180112Z 14005KT 09/02 A3007 RMK A01 T00880023  RH  064%=      5-min Rain = 0
KDO1 180113Z 14005KT 09/02 A3007 RMK A01 T00880023  RH  064%=      5-min Rain = 0
KDO1 180114Z 14005KT 09/02 A3007 RMK A01 T00870023  RH  064%=      5-min Rain = 0
KDO1 180115Z 14005KT 09/02 A3007 RMK A01 T00860023  RH  064%=      5-min Rain = 0
KDO1 180116Z 14005KT 09/02 A3007 RMK A01 T00860023  RH  065%=      5-min Rain = 0
KDO1 180117Z 14005KT 09/02 A3007 RMK A01 T00850023  RH  065%=      5-min Rain = 0
KDO1 180118Z 14005KT 09/02 A3007 RMK A01 T00850023  RH  065%=      5-min Rain = 0
KDO1 180119Z 14006KT 09/02 A3007 RMK A01 T00850023  RH  065%=      5-min Rain = 0
KDO1 180120Z 14006KT 09/02 A3007 RMK A01 T00850023  RH  065%=      5-min Rain = 0
KDO1 180121Z 14006KT 09/02 A3007 RMK A01 T00850023  RH  065%=      5-min Rain = 0
KDO1 180122Z 14006KT 09/02 A3007 RMK A01 T00850023  RH  065%=      5-min Rain = 0
KDO1 180123Z 14006KT 09/02 A3007 RMK A01 T00850023  RH  065%=      5-min Rain = 0
KDO1 180124Z 14006KT 09/02 A3007 RMK A01 T00850023  RH  065%=      5-min Rain = 0
KDO1 180125Z 14005KT 09/02 A3007 RMK A01 T00850023  RH  065%=      5-min Rain = 0
KDO1 180126Z 14005KT 09/02 A3007 RMK A01 T00850023  RH  065%=      5-min Rain = 0
KDO1 180127Z 13005KT 08/02 A3007 RMK A01 T00840023  RH  065%=      5-min Rain = 0
KDO1 180128Z 13005KT 08/02 A3007 RMK A01 T00830022  RH  065%=      5-min Rain = 0
KDO1 180129Z 13004KT 08/02 A3007 RMK A01 T00830022  RH  066%=      5-min Rain = 0
KDO1 180130Z 13004KT 08/02 A3007 RMK A01 T00820022  RH  066%=      5-min Rain = 0
KDO1 180131Z 14005KT 08/02 A3007 RMK A01 T00810022  RH  066%=      5-min Rain = 0
KDO1 180132Z 14005KT 08/02 A3007 RMK A01 T00810022  RH  066%=      5-min Rain = 0
KDO1 180133Z 13006KT 08/02 A3007 RMK A01 T00810023  RH  067%=      5-min Rain = 0
KDO1 180134Z 14006KT 08/02 A3007 RMK A01 T00810023  RH  067%=      5-min Rain = 0
KDO1 180135Z 14006KT 08/02 A3006 RMK A01 T00800023  RH  067%=      5-min Rain = 0
KDO1 180136Z 14006KT 08/02 A3006 RMK A01 T00800023  RH  067%=      5-min Rain = 0
KDO1 180137Z 14006KT 08/02 A3006 RMK A01 T00800023  RH  067%=      5-min Rain = 0
KDO1 180138Z 14006KT 08/02 A3006 RMK A01 T00790023  RH  068%=      5-min Rain = 0
KDO1 180139Z 14006KT 08/02 A3006 RMK A01 T00790023  RH  068%=      5-min Rain = 0
KDO1 180140Z 14006KT 08/02 A3006 RMK A01 T00780023  RH  068%=      5-min Rain = 0
KDO1 180141Z 14006KT 08/02 A3006 RMK A01 T00780023  RH  068%=      5-min Rain = 0
KDO1 180142Z 14006KT 08/02 A3006 RMK A01 T00780024  RH  069%=      5-min Rain = 0
KDO1 180143Z 14006KT 08/02 A3006 RMK A01 T00770024  RH  069%=      5-min Rain = 0
KDO1 180144Z 14007KT 08/02 A3006 RMK A01 T00770024  RH  069%=      5-min Rain = 0
KDO1 180145Z 14007KT 08/02 A3006 RMK A01 T00770024  RH  069%=      5-min Rain = 0
KDO1 180146Z 14007KT 08/03 A3006 RMK A01 T00770025  RH  069%=      5-min Rain = 0
KDO1 180147Z 14007KT 08/03 A3006 RMK A01 T00770025  RH  069%=      5-min Rain = 0
KDO1 180148Z 14006KT 08/03 A3006 RMK A01 T00760025  RH  070%=      5-min Rain = 0
KDO1 180149Z 14007KT 08/03 A3006 RMK A01 T00770025  RH  070%=      5-min Rain = 0
KDO1 180150Z 14007KT 08/03 A3006 RMK A01 T00760026  RH  070%=      5-min Rain = 0
KDO1 180151Z 14008KT 08/03 A3006 RMK A01 T00760027  RH  071%=      5-min Rain = 0
KDO1 180152Z 14007KT 08/03 A3006 RMK A01 T00770028  RH  071%=      5-min Rain = 0
KDO1 180153Z 14006KT 08/03 A3007 RMK A01 T00770028  RH  071%=      5-min Rain = 0
KDO1 180154Z 14006KT 08/03 A3007 RMK A01 T00760028  RH  071%=      5-min Rain = 0
KDO1 180155Z 13007KT 08/03 A3007 RMK A01 T00760028  RH  072%=      5-min Rain = 0
KDO1 180156Z 13007KT 08/03 A3007 RMK A01 T00760028  RH  072%=      5-min Rain = 0
KDO1 180157Z 14007KT 08/03 A3007 RMK A01 T00750028  RH  072%=      5-min Rain = 0
KDO1 180158Z 14006KT 08/03 A3007 RMK A01 T00750029  RH  073%=      5-min Rain = 0
KDO1 180159Z 14006KT 07/03 A3007 RMK A01 T00740029  RH  073%=      5-min Rain = 0
KDO1 180200Z 14006KT 07/03 A3007 RMK A01 T00740028  RH  073%=      5-min Rain = 0
KDO1 180201Z 14006KT 07/03 A3007 RMK A01 T00730028  RH  073%=      5-min Rain = 0
KDO1 180202Z 14005KT 07/03 A3007 RMK A01 T00730029  RH  073%=      5-min Rain = 0
KDO1 180203Z 14004KT 07/03 A3007 RMK A01 T00730028  RH  073%=      5-min Rain = 0
KDO1 180204Z 14005KT 07/03 A3007 RMK A01 T00720028  RH  074%=      5-min Rain = 0
KDO1 180205Z 14004KT 07/03 A3007 RMK A01 T00720029  RH  074%=      5-min Rain = 0
KDO1 180206Z 14005KT 07/03 A3007 RMK A01 T00710029  RH  074%=      5-min Rain = 0
KDO1 180207Z 14004KT 07/03 A3007 RMK A01 T00710028  RH  074%=      5-min Rain = 0
KDO1 180208Z 14004KT 07/03 A3007 RMK A01 T00710028  RH  074%=      5-min Rain = 0
KDO1 180209Z 14005KT 07/03 A3007 RMK A01 T00710029  RH  075%=      5-min Rain = 0
KDO1 180210Z 14004KT 07/03 A3007 RMK A01 T00700028  RH  075%=      5-min Rain = 0
KDO1 180211Z 14005KT 07/03 A3007 RMK A01 T00690028  RH  075%=      5-min Rain = 0
KDO1 180212Z 13004KT 07/03 A3007 RMK A01 T00690028  RH  075%=      5-min Rain = 0
KDO1 180213Z 13005KT 07/03 A3007 RMK A01 T00690028  RH  075%=      5-min Rain = 0
KDO1 180214Z 13005KT 07/03 A3007 RMK A01 T00680028  RH  076%=      5-min Rain = 0
KDO1 180215Z 13005KT 07/03 A3007 RMK A01 T00670028  RH  076%=      5-min Rain = 0
KDO1 180216Z 13004KT 07/03 A3007 RMK A01 T00670028  RH  076%=      5-min Rain = 0
KDO1 180217Z 13004KT 07/03 A3007 RMK A01 T00670028  RH  076%=      5-min Rain = 0
KDO1 180218Z 13004KT 07/03 A3007 RMK A01 T00670028  RH  076%=      5-min Rain = 0
KDO1 180219Z 13004KT 07/03 A3007 RMK A01 T00660027  RH  076%=      5-min Rain = 0
KDO1 180220Z 13004KT 07/03 A3006 RMK A01 T00650027  RH  076%=      5-min Rain = 0
KDO1 180221Z 13004KT 07/03 A3006 RMK A01 T00650027  RH  077%=      5-min Rain = 0
KDO1 180222Z 13004KT 06/03 A3006 RMK A01 T00640027  RH  077%=      5-min Rain = 0
KDO1 180223Z 13004KT 06/03 A3006 RMK A01 T00640027  RH  077%=      5-min Rain = 0
KDO1 180224Z 14005KT 06/03 A3006 RMK A01 T00630027  RH  078%=      5-min Rain = 0
KDO1 180225Z 14005KT 06/03 A3006 RMK A01 T00630027  RH  078%=      5-min Rain = 0
KDO1 180226Z 14006KT 06/03 A3006 RMK A01 T00630028  RH  078%=      5-min Rain = 0
KDO1 180227Z 14006KT 06/03 A3006 RMK A01 T00630028  RH  078%=      5-min Rain = 0
KDO1 180228Z 14006KT 06/03 A3006 RMK A01 T00630028  RH  078%=      5-min Rain = 0
KDO1 180229Z 14007KT 06/03 A3006 RMK A01 T00630028  RH  078%=      5-min Rain = 0
KDO1 180230Z 14007KT 06/03 A3006 RMK A01 T00630028  RH  078%=      5-min Rain = 0
KDO1 180231Z 14007KT 06/03 A3006 RMK A01 T00640029  RH  078%=      5-min Rain = 0
KDO1 180232Z 14007KT 06/03 A3006 RMK A01 T00640029  RH  078%=      5-min Rain = 0
KDO1 180233Z 14007KT 06/03 A3006 RMK A01 T00640029  RH  078%=      5-min Rain = 0
KDO1 180234Z 14007KT 06/03 A3006 RMK A01 T00640029  RH  078%=      5-min Rain = 0
KDO1 180235Z 14006KT 06/03 A3006 RMK A01 T00640029  RH  078%=      5-min Rain = 0
KDO1 180236Z 14006KT 06/03 A3006 RMK A01 T00640030  RH  078%=      5-min Rain = 0
KDO1 180237Z 14007KT 07/03 A3006 RMK A01 T00650029  RH  078%=      5-min Rain = 0
KDO1 180238Z 14006KT 06/03 A3006 RMK A01 T00640029  RH  078%=      5-min Rain = 0
KDO1 180239Z 14005KT 07/03 A3006 RMK A01 T00650029  RH  078%=      5-min Rain = 0
KDO1 180240Z 14006KT 06/03 A3006 RMK A01 T00640029  RH  078%=      5-min Rain = 0
KDO1 180241Z 14006KT 07/03 A3006 RMK A01 T00650029  RH  078%=      5-min Rain = 0
KDO1 180242Z 14006KT 06/03 A3006 RMK A01 T00640029  RH  078%=      5-min Rain = 0
KDO1 180243Z 14007KT 06/03 A3006 RMK A01 T00640029  RH  078%=      5-min Rain = 0
KDO1 180244Z 14006KT 06/03 A3005 RMK A01 T00640029  RH  079%=      5-min Rain = 0
KDO1 180245Z 14006KT 06/03 A3005 RMK A01 T00640029  RH  079%=      5-min Rain = 0
KDO1 180246Z 14007KT 06/03 A3005 RMK A01 T00640029  RH  078%=      5-min Rain = 0
KDO1 180247Z 14006KT 06/03 A3005 RMK A01 T00640029  RH  078%=      5-min Rain = 0
KDO1 180248Z 14006KT 06/03 A3005 RMK A01 T00640029  RH  079%=      5-min Rain = 0
KDO1 180249Z 14006KT 06/03 A3005 RMK A01 T00630029  RH  079%=      5-min Rain = 0
KDO1 180250Z 14005KT 06/03 A3005 RMK A01 T00630029  RH  079%=      5-min Rain = 0
KDO1 180251Z 14005KT 06/03 A3005 RMK A01 T00630029  RH  079%=      5-min Rain = 0
KDO1 180252Z 15005KT 06/03 A3005 RMK A01 T00620029  RH  079%=      5-min Rain = 0
KDO1 180253Z 14004KT 06/03 A3005 RMK A01 T00620029  RH  079%=      5-min Rain = 0
KDO1 180254Z 15004KT 06/03 A3005 RMK A01 T00620029  RH  079%=      5-min Rain = 0
KDO1 180255Z 15004KT 06/03 A3005 RMK A01 T00610029  RH  080%=      5-min Rain = 0
KDO1 180256Z 14003KT 06/03 A3005 RMK A01 T00620029  RH  080%=      5-min Rain = 0
KDO1 180257Z 14003KT 06/03 A3005 RMK A01 T00610029  RH  080%=      5-min Rain = 0
KDO1 180258Z 14004KT 06/03 A3005 RMK A01 T00610028  RH  080%=      5-min Rain = 0
KDO1 180259Z 14004KT 06/03 A3005 RMK A01 T00600028  RH  080%=      5-min Rain = 0
KDO1 180300Z 14004KT 06/03 A3005 RMK A01 T00600028  RH  080%=      5-min Rain = 0
KDO1 180301Z 14004KT 06/03 A3005 RMK A01 T00590028  RH  081%=      5-min Rain = 0
KDO1 180302Z 15004KT 06/03 A3005 RMK A01 T00590028  RH  081%=      5-min Rain = 0
KDO1 180303Z 15004KT 06/03 A3005 RMK A01 T00590028  RH  081%=      5-min Rain = 0
KDO1 180304Z 15005KT 06/03 A3005 RMK A01 T00580029  RH  081%=      5-min Rain = 0
KDO1 180305Z 15005KT 06/03 A3004 RMK A01 T00590029  RH  081%=      5-min Rain = 0
KDO1 180306Z 14005KT 06/03 A3004 RMK A01 T00590029  RH  081%=      5-min Rain = 0
KDO1 180307Z 14005KT 06/03 A3004 RMK A01 T00580029  RH  082%=      5-min Rain = 0
KDO1 180308Z 14004KT 06/03 A3004 RMK A01 T00580029  RH  082%=      5-min Rain = 0
KDO1 180309Z 14004KT 06/03 A3004 RMK A01 T00590030  RH  082%=      5-min Rain = 0
KDO1 180310Z 15004KT 06/03 A3004 RMK A01 T00580030  RH  082%=      5-min Rain = 0
KDO1 180311Z 14003KT 06/03 A3004 RMK A01 T00590030  RH  082%=      5-min Rain = 0
KDO1 180312Z 14004KT 06/03 A3004 RMK A01 T00590030  RH  081%=      5-min Rain = 0
KDO1 180313Z 15004KT 06/03 A3004 RMK A01 T00590030  RH  082%=      5-min Rain = 0
KDO1 180314Z 14003KT 06/03 A3004 RMK A01 T00580030  RH  082%=      5-min Rain = 0
KDO1 180315Z 15004KT 06/03 A3004 RMK A01 T00580030  RH  082%=      5-min Rain = 0
KDO1 180316Z 14004KT 06/03 A3004 RMK A01 T00590030  RH  082%=      5-min Rain = 0
KDO1 180317Z 15003KT 06/03 A3004 RMK A01 T00590031  RH  082%=      5-min Rain = 0
KDO1 180318Z 14003KT 06/03 A3004 RMK A01 T00590031  RH  082%=      5-min Rain = 0
KDO1 180319Z 15003KT 06/03 A3004 RMK A01 T00590031  RH  082%=      5-min Rain = 0
KDO1 180320Z 14003KT 06/03 A3004 RMK A01 T00600031  RH  082%=      5-min Rain = 0
KDO1 180321Z 15002KT 06/03 A3004 RMK A01 T00600031  RH  082%=      5-min Rain = 0
KDO1 180322Z 16003KT 06/03 A3004 RMK A01 T00600031  RH  082%=      5-min Rain = 0
KDO1 180323Z 15003KT 06/03 A3004 RMK A01 T00600032  RH  082%=      5-min Rain = 0
KDO1 180324Z 16003KT 06/03 A3004 RMK A01 T00610032  RH  082%=      5-min Rain = 0
KDO1 180325Z 16003KT 06/03 A3004 RMK A01 T00610032  RH  082%=      5-min Rain = 0
KDO1 180326Z 16003KT 06/03 A3004 RMK A01 T00610032  RH  082%=      5-min Rain = 0
KDO1 180327Z 16004KT 06/03 A3004 RMK A01 T00620033  RH  082%=      5-min Rain = 0
KDO1 180328Z 16004KT 06/03 A3004 RMK A01 T00620033  RH  082%=      5-min Rain = 0
KDO1 180329Z 16003KT 06/03 A3004 RMK A01 T00620033  RH  081%=      5-min Rain = 0
KDO1 180330Z 16004KT 06/03 A3004 RMK A01 T00620033  RH  082%=      5-min Rain = 0
KDO1 180331Z 16005KT 06/03 A3004 RMK A01 T00610033  RH  082%=      5-min Rain = 0
KDO1 180332Z 16005KT 06/03 A3004 RMK A01 T00610033  RH  082%=      5-min Rain = 0
KDO1 180333Z 16005KT 06/03 A3004 RMK A01 T00610033  RH  082%=      5-min Rain = 0
KDO1 180334Z 16005KT 06/03 A3004 RMK A01 T00610033  RH  082%=      5-min Rain = 0
KDO1 180335Z 16004KT 06/03 A3004 RMK A01 T00610033  RH  082%=      5-min Rain = 0
KDO1 180336Z 16004KT 06/03 A3004 RMK A01 T00610033  RH  082%=      5-min Rain = 0
KDO1 180337Z 15005KT 06/03 A3004 RMK A01 T00610033  RH  082%=      5-min Rain = 0
KDO1 180338Z 15004KT 06/03 A3004 RMK A01 T00600033  RH  082%=      5-min Rain = 0
KDO1 180339Z 15004KT 06/03 A3004 RMK A01 T00600033  RH  082%=      5-min Rain = 0
KDO1 180340Z 15004KT 06/03 A3004 RMK A01 T00600033  RH  082%=      5-min Rain = 0
KDO1 180341Z 15004KT 06/03 A3004 RMK A01 T00600033  RH  083%=      5-min Rain = 0
KDO1 180342Z 15004KT 06/03 A3004 RMK A01 T00600032  RH  083%=      5-min Rain = 0
KDO1 180343Z 15004KT 06/03 A3004 RMK A01 T00600033  RH  083%=      5-min Rain = 0
KDO1 180344Z 14004KT 06/03 A3004 RMK A01 T00600033  RH  083%=      5-min Rain = 0
KDO1 180345Z 15004KT 06/03 A3004 RMK A01 T00600033  RH  083%=      5-min Rain = 0
KDO1 180346Z 15003KT 06/03 A3004 RMK A01 T00590033  RH  083%=      5-min Rain = 0
KDO1 180347Z 15003KT 06/03 A3004 RMK A01 T00590033  RH  083%=      5-min Rain = 0
KDO1 180348Z 15003KT 06/03 A3004 RMK A01 T00590032  RH  083%=      5-min Rain = 0
KDO1 180349Z 15002KT 06/03 A3004 RMK A01 T00590032  RH  083%=      5-min Rain = 0
KDO1 180350Z 14003KT 06/03 A3004 RMK A01 T00580032  RH  083%=      5-min Rain = 0
KDO1 180351Z 15002KT 06/03 A3004 RMK A01 T00580031  RH  083%=      5-min Rain = 0
KDO1 180352Z 14002KT 06/03 A3004 RMK A01 T00570031  RH  083%=      5-min Rain = 0
KDO1 180353Z 15003KT 06/03 A3004 RMK A01 T00570031  RH  084%=      5-min Rain = 0
KDO1 180354Z 15003KT 06/03 A3004 RMK A01 T00570032  RH  084%=      5-min Rain = 0
KDO1 180355Z 15003KT 06/03 A3004 RMK A01 T00560032  RH  084%=      5-min Rain = 0
KDO1 180356Z 15003KT 06/03 A3004 RMK A01 T00570033  RH  085%=      5-min Rain = 0
KDO1 180357Z 15003KT 06/03 A3004 RMK A01 T00570033  RH  085%=      5-min Rain = 0
KDO1 180358Z 15003KT 06/03 A3004 RMK A01 T00570033  RH  084%=      5-min Rain = 0
KDO1 180359Z 15003KT 06/03 A3003 RMK A01 T00580033  RH  084%=      5-min Rain = 0
KDO1 180400Z 15003KT 06/03 A3003 RMK A01 T00570033  RH  084%=      5-min Rain = 0
KDO1 180401Z 14003KT 06/03 A3003 RMK A01 T00580033  RH  084%=      5-min Rain = 0
KDO1 180402Z 15004KT 06/03 A3003 RMK A01 T00580033  RH  084%=      5-min Rain = 0
KDO1 180403Z 15004KT 06/03 A3003 RMK A01 T00580033  RH  084%=      5-min Rain = 0
KDO1 180404Z 14004KT 06/03 A3003 RMK A01 T00580033  RH  084%=      5-min Rain = 0
KDO1 180405Z 14003KT 06/03 A3003 RMK A01 T00580033  RH  084%=      5-min Rain = 0
KDO1 180406Z 14003KT 06/03 A3003 RMK A01 T00570032  RH  084%=      5-min Rain = 0
KDO1 180407Z 15003KT 06/03 A3003 RMK A01 T00570032  RH  084%=      5-min Rain = 0
KDO1 180408Z 14002KT 06/03 A3003 RMK A01 T00570033  RH  084%=      5-min Rain = 0
KDO1 180409Z 14002KT 06/03 A3003 RMK A01 T00560032  RH  085%=      5-min Rain = 0
KDO1 180410Z 14002KT 06/03 A3003 RMK A01 T00550032  RH  085%=      5-min Rain = 0
KDO1 180411Z 15003KT 06/03 A3003 RMK A01 T00550032  RH  085%=      5-min Rain = 0
KDO1 180412Z 15002KT 06/03 A3003 RMK A01 T00550032  RH  085%=      5-min Rain = 0
KDO1 180413Z 16003KT 06/03 A3003 RMK A01 T00550032  RH  085%=      5-min Rain = 0
KDO1 180414Z 16003KT 06/03 A3003 RMK A01 T00550032  RH  086%=      5-min Rain = 0
KDO1 180415Z 16003KT 05/03 A3003 RMK A01 T00540032  RH  086%=      5-min Rain = 0
KDO1 180416Z 16003KT 05/03 A3003 RMK A01 T00540032  RH  086%=      5-min Rain = 0
KDO1 180417Z 16003KT 05/03 A3003 RMK A01 T00540032  RH  086%=      5-min Rain = 0
KDO1 180418Z 16003KT 05/03 A3003 RMK A01 T00540032  RH  086%=      5-min Rain = 0
KDO1 180419Z 16003KT 05/03 A3003 RMK A01 T00540032  RH  086%=      5-min Rain = 0
KDO1 180420Z 16003KT 05/03 A3003 RMK A01 T00540032  RH  086%=      5-min Rain = 0
KDO1 180421Z 16004KT 05/03 A3003 RMK A01 T00540032  RH  086%=      5-min Rain = 0
KDO1 180422Z 15004KT 05/03 A3003 RMK A01 T00530032  RH  086%=      5-min Rain = 0
KDO1 180423Z 15004KT 05/03 A3003 RMK A01 T00540032  RH  086%=      5-min Rain = 0
KDO1 180424Z 15005KT 05/03 A3003 RMK A01 T00540033  RH  086%=      5-min Rain = 0
KDO1 180425Z 15005KT 06/03 A3003 RMK A01 T00550033  RH  086%=      5-min Rain = 0
KDO1 180426Z 15004KT 06/03 A3003 RMK A01 T00550033  RH  086%=      5-min Rain = 0
KDO1 180427Z 14004KT 06/03 A3003 RMK A01 T00550033  RH  086%=      5-min Rain = 0
KDO1 180428Z 14004KT 06/03 A3003 RMK A01 T00550033  RH  086%=      5-min Rain = 0
KDO1 180429Z 14004KT 06/03 A3003 RMK A01 T00550033  RH  086%=      5-min Rain = 0
KDO1 180430Z 14004KT 06/03 A3003 RMK A01 T00550033  RH  086%=      5-min Rain = 0
KDO1 180431Z 15004KT 05/03 A3003 RMK A01 T00540033  RH  086%=      5-min Rain = 0
KDO1 180432Z 15004KT 05/03 A3003 RMK A01 T00540033  RH  086%=      5-min Rain = 0
KDO1 180433Z 15004KT 06/03 A3003 RMK A01 T00550033  RH  086%=      5-min Rain = 0
KDO1 180434Z 15004KT 05/03 A3003 RMK A01 T00540033  RH  086%=      5-min Rain = 0
KDO1 180435Z 15004KT 05/03 A3003 RMK A01 T00540033  RH  086%=      5-min Rain = 0
KDO1 180436Z 15004KT 05/03 A3003 RMK A01 T00540033  RH  086%=      5-min Rain = 0
KDO1 180437Z 14004KT 06/03 A3003 RMK A01 T00550034  RH  086%=      5-min Rain = 0
KDO1 180438Z 14004KT 06/03 A3003 RMK A01 T00550033  RH  086%=      5-min Rain = 0
KDO1 180439Z 14004KT 05/03 A3003 RMK A01 T00540033  RH  086%=      5-min Rain = 0
KDO1 180440Z 14004KT 05/03 A3003 RMK A01 T00530032  RH  086%=      5-min Rain = 0
KDO1 180441Z 14004KT 05/03 A3003 RMK A01 T00530032  RH  086%=      5-min Rain = 0
KDO1 180442Z 14004KT 05/03 A3003 RMK A01 T00520031  RH  087%=      5-min Rain = 0
KDO1 180443Z 14004KT 05/03 A3003 RMK A01 T00510032  RH  087%=      5-min Rain = 0
KDO1 180444Z 13003KT 05/03 A3003 RMK A01 T00510032  RH  087%=      5-min Rain = 0
KDO1 180445Z 13003KT 05/03 A3003 RMK A01 T00510031  RH  087%=      5-min Rain = 0
KDO1 180446Z 14003KT 05/03 A3003 RMK A01 T00500031  RH  088%=      5-min Rain = 0
KDO1 180447Z 14003KT 05/03 A3003 RMK A01 T00500031  RH  088%=      5-min Rain = 0
KDO1 180448Z 15004KT 05/03 A3003 RMK A01 T00500032  RH  088%=      5-min Rain = 0
KDO1 180449Z 13002KT 05/03 A3003 RMK A01 T00500032  RH  088%=      5-min Rain = 0
KDO1 180450Z 14002KT 05/03 A3003 RMK A01 T00500032  RH  088%=      5-min Rain = 0
KDO1 180451Z 14002KT 05/03 A3003 RMK A01 T00500032  RH  088%=      5-min Rain = 0
KDO1 180452Z 14001KT 05/03 A3003 RMK A01 T00500032  RH  088%=      5-min Rain = 0
KDO1 180453Z 14001KT 05/03 A3003 RMK A01 T00490031  RH  088%=      5-min Rain = 0
KDO1 180454Z 14001KT 05/03 A3003 RMK A01 T00500032  RH  088%=      5-min Rain = 0
KDO1 180455Z 12001KT 05/03 A3003 RMK A01 T00490032  RH  089%=      5-min Rain = 0
KDO1 180456Z 16001KT 05/03 A3003 RMK A01 T00490032  RH  089%=      5-min Rain = 0
KDO1 180457Z 15001KT 05/03 A3003 RMK A01 T00490032  RH  089%=      5-min Rain = 0
KDO1 180458Z 15001KT 05/03 A3003 RMK A01 T00490032  RH  089%=      5-min Rain = 0
KDO1 180459Z 15001KT 05/03 A3003 RMK A01 T00480032  RH  089%=      5-min Rain = 0
KDO1 180500Z 00000KT 05/03 A3003 RMK A01 T00480031  RH  089%=      5-min Rain = 0
KDO1 180501Z 14000KT 05/03 A3003 RMK A01 T00470029  RH  088%=      5-min Rain = 0
KDO1 180502Z 14001KT 05/03 A3003 RMK A01 T00460030  RH  089%=      5-min Rain = 0
KDO1 180503Z 15002KT 05/03 A3003 RMK A01 T00460031  RH  090%=      5-min Rain = 0
KDO1 180504Z 15001KT 05/03 A3003 RMK A01 T00460032  RH  090%=      5-min Rain = 0
KDO1 180505Z 15001KT 05/03 A3003 RMK A01 T00470031  RH  090%=      5-min Rain = 0
KDO1 180506Z 17001KT 05/03 A3003 RMK A01 T00470032  RH  090%=      5-min Rain = 0
KDO1 180507Z 17002KT 05/03 A3003 RMK A01 T00480033  RH  090%=      5-min Rain = 0
KDO1 180508Z 18001KT 05/03 A3003 RMK A01 T00480032  RH  089%=      5-min Rain = 0
KDO1 180509Z 15003KT 05/03 A3003 RMK A01 T00480031  RH  089%=      5-min Rain = 0
KDO1 180510Z 17003KT 05/03 A3003 RMK A01 T00480033  RH  090%=      5-min Rain = 0
KDO1 180511Z 15002KT 05/03 A3003 RMK A01 T00480033  RH  090%=      5-min Rain = 0
KDO1 180512Z 14002KT 05/03 A3002 RMK A01 T00480032  RH  090%=      5-min Rain = 0
KDO1 180513Z 15002KT 05/03 A3003 RMK A01 T00480033  RH  090%=      5-min Rain = 0
KDO1 180514Z 16002KT 05/03 A3003 RMK A01 T00480032  RH  090%=      5-min Rain = 0
KDO1 180515Z 14002KT 05/03 A3002 RMK A01 T00470032  RH  090%=      5-min Rain = 0
KDO1 180516Z 12002KT 05/03 A3002 RMK A01 T00470032  RH  090%=      5-min Rain = 0
KDO1 180517Z 15002KT 05/03 A3002 RMK A01 T00470032  RH  090%=      5-min Rain = 0
KDO1 180518Z 14003KT 05/03 A3002 RMK A01 T00460031  RH  090%=      5-min Rain = 0
KDO1 180519Z 15005KT 05/03 A3002 RMK A01 T00450030  RH  090%=      5-min Rain = 0
KDO1 180520Z 17003KT 04/03 A3002 RMK A01 T00440030  RH  091%=      5-min Rain = 0
KDO1 180521Z 16004KT 04/03 A3002 RMK A01 T00440031  RH  092%=      5-min Rain = 0
KDO1 180522Z 16005KT 05/03 A3002 RMK A01 T00450032  RH  092%=      5-min Rain = 0
KDO1 180523Z 17004KT 05/03 A3002 RMK A01 T00450032  RH  091%=      5-min Rain = 0
KDO1 180524Z 16004KT 05/03 A3002 RMK A01 T00450032  RH  091%=      5-min Rain = 0
KDO1 180525Z 16004KT 05/03 A3002 RMK A01 T00450032  RH  091%=      5-min Rain = 0
KDO1 180526Z 15004KT 05/03 A3002 RMK A01 T00450032  RH  092%=      5-min Rain = 0
KDO1 180527Z 15004KT 05/03 A3002 RMK A01 T00450032  RH  091%=      5-min Rain = 0
KDO1 180528Z 15005KT 04/03 A3003 RMK A01 T00440032  RH  091%=      5-min Rain = 0
KDO1 180529Z 15004KT 04/03 A3002 RMK A01 T00440032  RH  091%=      5-min Rain = 0
KDO1 180530Z 15004KT 04/03 A3002 RMK A01 T00440031  RH  092%=      5-min Rain = 0
KDO1 180531Z 17005KT 04/03 A3002 RMK A01 T00440032  RH  092%=      5-min Rain = 0
KDO1 180532Z 17005KT 05/03 A3002 RMK A01 T00450033  RH  092%=      5-min Rain = 0
KDO1 180533Z 17005KT 05/03 A3002 RMK A01 T00460034  RH  092%=      5-min Rain = 0
KDO1 180534Z 17006KT 05/04 A3002 RMK A01 T00470035  RH  092%=      5-min Rain = 0
KDO1 180535Z 17006KT 05/04 A3002 RMK A01 T00470035  RH  092%=      5-min Rain = 0
KDO1 180536Z 17007KT 05/03 A3002 RMK A01 T00470034  RH  092%=      5-min Rain = 0
KDO1 180537Z 18006KT 05/04 A3002 RMK A01 T00470035  RH  092%=      5-min Rain = 0
KDO1 180538Z 17006KT 05/04 A3002 RMK A01 T00470035  RH  092%=      5-min Rain = 0
KDO1 180539Z 17006KT 05/03 A3002 RMK A01 T00470034  RH  091%=      5-min Rain = 0
KDO1 180540Z 16006KT 05/03 A3002 RMK A01 T00470034  RH  092%=      5-min Rain = 0
KDO1 180541Z 16005KT 05/03 A3002 RMK A01 T00460034  RH  092%=      5-min Rain = 0
KDO1 180542Z 15005KT 05/03 A3002 RMK A01 T00460034  RH  092%=      5-min Rain = 0
KDO1 180543Z 15005KT 05/03 A3002 RMK A01 T00460034  RH  092%=      5-min Rain = 0
KDO1 180544Z 14005KT 05/03 A3002 RMK A01 T00460034  RH  092%=      5-min Rain = 0
KDO1 180545Z 14004KT 05/03 A3002 RMK A01 T00460034  RH  092%=      5-min Rain = 0
KDO1 180546Z 14004KT 05/03 A3002 RMK A01 T00460034  RH  092%=      5-min Rain = 0
KDO1 180547Z 14003KT 05/03 A3002 RMK A01 T00450033  RH  092%=      5-min Rain = 0
KDO1 180548Z 14004KT 05/03 A3002 RMK A01 T00450034  RH  092%=      5-min Rain = 0
KDO1 180549Z 15003KT 05/03 A3002 RMK A01 T00450034  RH  093%=      5-min Rain = 0
KDO1 180550Z 15003KT 05/04 A3002 RMK A01 T00450035  RH  093%=      5-min Rain = 0
KDO1 180551Z 15003KT 05/04 A3002 RMK A01 T00450035  RH  093%=      5-min Rain = 0
KDO1 180552Z 15004KT 05/04 A3002 RMK A01 T00460035  RH  093%=      5-min Rain = 0
KDO1 180553Z 15004KT 05/04 A3002 RMK A01 T00460036  RH  093%=      5-min Rain = 0
KDO1 180554Z 14004KT 05/04 A3002 RMK A01 T00460035  RH  092%=      5-min Rain = 0
KDO1 180555Z 14004KT 05/03 A3001 RMK A01 T00460034  RH  092%=      5-min Rain = 0
KDO1 180556Z 14004KT 05/03 A3001 RMK A01 T00450034  RH  092%=      5-min Rain = 0
KDO1 180557Z 14005KT 05/03 A3001 RMK A01 T00450033  RH  092%=      5-min Rain = 0
KDO1 180558Z 14005KT 04/03 A3001 RMK A01 T00440033  RH  093%=      5-min Rain = 0
KDO1 180559Z 14005KT 04/03 A3001 RMK A01 T00430032  RH  093%=      5-min Rain = 0

Page generated in 0.105 seconds.